<?xml version="1.0" encoding="UTF-8" ?>
<gpx version="1.1" creator="CartoExploreur 3D 1.15" xmlns:xsi="http://www.w3.org/2001/XMLSchema-instance" xmlns="http://www.topografix.com/GPX/1/1" xsi:schemaLocation="http://www.topografix.com/GPX/1/1 http://www.topografix.com/GPX/1/1/gpx.xsd">
    <metadata>
        <time>2018-02-12T04:53:43Z</time>
        <bounds maxlat="43.344419000" maxlon="5.060566000" minlat="43.325603000" minlon="5.031969000" />
    </metadata>
    <trk>
        <name>BL-Martigues-La boucle des carrieres-2018-01-25 14...</name>
        <trkseg>
            <trkpt lat="43.329713000" lon="5.039641000">
                <ele>2.000000</ele>
                <time>2018-01-25T10:10:47Z</time>
            </trkpt>
            <trkpt lat="43.329692000" lon="5.039530000">
                <ele>3.000000</ele>
                <time>2018-01-25T10:12:03Z</time>
            </trkpt>
            <trkpt lat="43.329643000" lon="5.039412000">
                <ele>3.000000</ele>
                <time>2018-01-25T10:12:10Z</time>
            </trkpt>
            <trkpt lat="43.329601000" lon="5.039292000">
                <ele>3.000000</ele>
                <time>2018-01-25T10:12:27Z</time>
            </trkpt>
            <trkpt lat="43.329632000" lon="5.039424000">
                <ele>3.000000</ele>
                <time>2018-01-25T10:12:38Z</time>
            </trkpt>
            <trkpt lat="43.329698000" lon="5.039570000">
                <ele>3.000000</ele>
                <time>2018-01-25T10:12:46Z</time>
            </trkpt>
            <trkpt lat="43.329674000" lon="5.039713000">
                <ele>2.000000</ele>
                <time>2018-01-25T10:12:55Z</time>
            </trkpt>
            <trkpt lat="43.329611000" lon="5.039851000">
                <ele>2.000000</ele>
                <time>2018-01-25T10:13:03Z</time>
            </trkpt>
            <trkpt lat="43.329544000" lon="5.039957000">
                <ele>2.000000</ele>
                <time>2018-01-25T10:13:12Z</time>
            </trkpt>
            <trkpt lat="43.329485000" lon="5.040088000">
                <ele>2.000000</ele>
                <time>2018-01-25T10:13:22Z</time>
            </trkpt>
            <trkpt lat="43.329435000" lon="5.040249000">
                <ele>2.000000</ele>
                <time>2018-01-25T10:13:30Z</time>
            </trkpt>
            <trkpt lat="43.329357000" lon="5.040389000">
                <ele>3.000000</ele>
                <time>2018-01-25T10:13:39Z</time>
            </trkpt>
            <trkpt lat="43.329295000" lon="5.040517000">
                <ele>3.000000</ele>
                <time>2018-01-25T10:13:47Z</time>
            </trkpt>
            <trkpt lat="43.329234000" lon="5.040638000">
                <ele>3.000000</ele>
                <time>2018-01-25T10:13:54Z</time>
            </trkpt>
            <trkpt lat="43.329187000" lon="5.040777000">
                <ele>4.000000</ele>
                <time>2018-01-25T10:14:02Z</time>
            </trkpt>
            <trkpt lat="43.329142000" lon="5.040901000">
                <ele>4.000000</ele>
                <time>2018-01-25T10:14:10Z</time>
            </trkpt>
            <trkpt lat="43.329095000" lon="5.041043000">
                <ele>3.000000</ele>
                <time>2018-01-25T10:14:18Z</time>
            </trkpt>
            <trkpt lat="43.329028000" lon="5.041142000">
                <ele>2.000000</ele>
                <time>2018-01-25T10:14:25Z</time>
            </trkpt>
            <trkpt lat="43.328975000" lon="5.041255000">
                <ele>2.000000</ele>
                <time>2018-01-25T10:14:32Z</time>
            </trkpt>
            <trkpt lat="43.328897000" lon="5.041310000">
                <ele>2.000000</ele>
                <time>2018-01-25T10:14:40Z</time>
            </trkpt>
            <trkpt lat="43.328804000" lon="5.041283000">
                <ele>2.000000</ele>
                <time>2018-01-25T10:14:48Z</time>
            </trkpt>
            <trkpt lat="43.328713000" lon="5.041262000">
                <ele>2.000000</ele>
                <time>2018-01-25T10:14:55Z</time>
            </trkpt>
            <trkpt lat="43.328515000" lon="5.041114000">
                <ele>2.000000</ele>
                <time>2018-01-25T10:16:42Z</time>
            </trkpt>
            <trkpt lat="43.328351000" lon="5.040977000">
                <ele>1.000000</ele>
                <time>2018-01-25T10:17:39Z</time>
            </trkpt>
            <trkpt lat="43.328297000" lon="5.040873000">
                <ele>1.000000</ele>
                <time>2018-01-25T10:17:48Z</time>
            </trkpt>
            <trkpt lat="43.328333000" lon="5.040752000">
                <ele>1.000000</ele>
                <time>2018-01-25T10:17:57Z</time>
            </trkpt>
            <trkpt lat="43.328396000" lon="5.040650000">
                <ele>1.000000</ele>
                <time>2018-01-25T10:18:07Z</time>
            </trkpt>
            <trkpt lat="43.328460000" lon="5.040547000">
                <ele>1.000000</ele>
                <time>2018-01-25T10:18:15Z</time>
            </trkpt>
            <trkpt lat="43.328525000" lon="5.040441000">
                <ele>1.000000</ele>
                <time>2018-01-25T10:18:23Z</time>
            </trkpt>
            <trkpt lat="43.328582000" lon="5.040347000">
                <ele>1.000000</ele>
                <time>2018-01-25T10:18:30Z</time>
            </trkpt>
            <trkpt lat="43.328639000" lon="5.040240000">
                <ele>1.000000</ele>
                <time>2018-01-25T10:18:38Z</time>
            </trkpt>
            <trkpt lat="43.328703000" lon="5.040142000">
                <ele>2.000000</ele>
                <time>2018-01-25T10:18:46Z</time>
            </trkpt>
            <trkpt lat="43.328768000" lon="5.040047000">
                <ele>2.000000</ele>
                <time>2018-01-25T10:18:54Z</time>
            </trkpt>
            <trkpt lat="43.328843000" lon="5.039956000">
                <ele>2.000000</ele>
                <time>2018-01-25T10:19:03Z</time>
            </trkpt>
            <trkpt lat="43.328912000" lon="5.039848000">
                <ele>2.000000</ele>
                <time>2018-01-25T10:19:12Z</time>
            </trkpt>
            <trkpt lat="43.328964000" lon="5.039729000">
                <ele>2.000000</ele>
                <time>2018-01-25T10:19:20Z</time>
            </trkpt>
            <trkpt lat="43.329015000" lon="5.039605000">
                <ele>2.000000</ele>
                <time>2018-01-25T10:19:29Z</time>
            </trkpt>
            <trkpt lat="43.329069000" lon="5.039488000">
                <ele>2.000000</ele>
                <time>2018-01-25T10:19:37Z</time>
            </trkpt>
            <trkpt lat="43.329120000" lon="5.039367000">
                <ele>2.000000</ele>
                <time>2018-01-25T10:19:45Z</time>
            </trkpt>
            <trkpt lat="43.329169000" lon="5.039247000">
                <ele>2.000000</ele>
                <time>2018-01-25T10:19:53Z</time>
            </trkpt>
            <trkpt lat="43.329227000" lon="5.039124000">
                <ele>2.000000</ele>
                <time>2018-01-25T10:20:01Z</time>
            </trkpt>
            <trkpt lat="43.329277000" lon="5.039015000">
                <ele>2.000000</ele>
                <time>2018-01-25T10:20:09Z</time>
            </trkpt>
            <trkpt lat="43.329316000" lon="5.038896000">
                <ele>2.000000</ele>
                <time>2018-01-25T10:20:17Z</time>
            </trkpt>
            <trkpt lat="43.329348000" lon="5.038786000">
                <ele>2.000000</ele>
                <time>2018-01-25T10:20:25Z</time>
            </trkpt>
            <trkpt lat="43.329388000" lon="5.038674000">
                <ele>2.000000</ele>
                <time>2018-01-25T10:20:33Z</time>
            </trkpt>
            <trkpt lat="43.329422000" lon="5.038545000">
                <ele>2.000000</ele>
                <time>2018-01-25T10:20:42Z</time>
            </trkpt>
            <trkpt lat="43.329469000" lon="5.038418000">
                <ele>2.000000</ele>
                <time>2018-01-25T10:20:52Z</time>
            </trkpt>
            <trkpt lat="43.329514000" lon="5.038292000">
                <ele>2.000000</ele>
                <time>2018-01-25T10:21:02Z</time>
            </trkpt>
            <trkpt lat="43.329556000" lon="5.038178000">
                <ele>2.000000</ele>
                <time>2018-01-25T10:21:10Z</time>
            </trkpt>
            <trkpt lat="43.329597000" lon="5.038056000">
                <ele>2.000000</ele>
                <time>2018-01-25T10:21:19Z</time>
            </trkpt>
            <trkpt lat="43.329642000" lon="5.037940000">
                <ele>2.000000</ele>
                <time>2018-01-25T10:21:28Z</time>
            </trkpt>
            <trkpt lat="43.329685000" lon="5.037826000">
                <ele>2.000000</ele>
                <time>2018-01-25T10:21:38Z</time>
            </trkpt>
            <trkpt lat="43.329745000" lon="5.037711000">
                <ele>2.000000</ele>
                <time>2018-01-25T10:21:47Z</time>
            </trkpt>
            <trkpt lat="43.329785000" lon="5.037620000">
                <ele>2.000000</ele>
                <time>2018-01-25T10:22:15Z</time>
            </trkpt>
            <trkpt lat="43.329815000" lon="5.037503000">
                <ele>2.000000</ele>
                <time>2018-01-25T10:22:30Z</time>
            </trkpt>
            <trkpt lat="43.329844000" lon="5.037376000">
                <ele>2.000000</ele>
                <time>2018-01-25T10:22:39Z</time>
            </trkpt>
            <trkpt lat="43.329886000" lon="5.037254000">
                <ele>2.000000</ele>
                <time>2018-01-25T10:22:48Z</time>
            </trkpt>
            <trkpt lat="43.329911000" lon="5.037155000">
                <ele>2.000000</ele>
                <time>2018-01-25T10:23:01Z</time>
            </trkpt>
            <trkpt lat="43.329977000" lon="5.037035000">
                <ele>1.000000</ele>
                <time>2018-01-25T10:23:09Z</time>
            </trkpt>
            <trkpt lat="43.330050000" lon="5.036939000">
                <ele>1.000000</ele>
                <time>2018-01-25T10:23:19Z</time>
            </trkpt>
            <trkpt lat="43.330122000" lon="5.036831000">
                <ele>1.000000</ele>
                <time>2018-01-25T10:23:26Z</time>
            </trkpt>
            <trkpt lat="43.330189000" lon="5.036743000">
                <ele>1.000000</ele>
                <time>2018-01-25T10:23:33Z</time>
            </trkpt>
            <trkpt lat="43.330255000" lon="5.036648000">
                <ele>2.000000</ele>
                <time>2018-01-25T10:23:40Z</time>
            </trkpt>
            <trkpt lat="43.330322000" lon="5.036556000">
                <ele>2.000000</ele>
                <time>2018-01-25T10:23:47Z</time>
            </trkpt>
            <trkpt lat="43.330392000" lon="5.036455000">
                <ele>2.000000</ele>
                <time>2018-01-25T10:23:55Z</time>
            </trkpt>
            <trkpt lat="43.330473000" lon="5.036366000">
                <ele>3.000000</ele>
                <time>2018-01-25T10:24:03Z</time>
            </trkpt>
            <trkpt lat="43.330554000" lon="5.036285000">
                <ele>3.000000</ele>
                <time>2018-01-25T10:24:11Z</time>
            </trkpt>
            <trkpt lat="43.330625000" lon="5.036202000">
                <ele>3.000000</ele>
                <time>2018-01-25T10:24:19Z</time>
            </trkpt>
            <trkpt lat="43.330709000" lon="5.036128000">
                <ele>4.000000</ele>
                <time>2018-01-25T10:24:27Z</time>
            </trkpt>
            <trkpt lat="43.330786000" lon="5.036045000">
                <ele>4.000000</ele>
                <time>2018-01-25T10:24:35Z</time>
            </trkpt>
            <trkpt lat="43.330868000" lon="5.035960000">
                <ele>4.000000</ele>
                <time>2018-01-25T10:24:43Z</time>
            </trkpt>
            <trkpt lat="43.330941000" lon="5.035860000">
                <ele>4.000000</ele>
                <time>2018-01-25T10:24:51Z</time>
            </trkpt>
            <trkpt lat="43.331001000" lon="5.035758000">
                <ele>4.000000</ele>
                <time>2018-01-25T10:24:58Z</time>
            </trkpt>
            <trkpt lat="43.331071000" lon="5.035667000">
                <ele>4.000000</ele>
                <time>2018-01-25T10:25:06Z</time>
            </trkpt>
            <trkpt lat="43.331149000" lon="5.035581000">
                <ele>3.000000</ele>
                <time>2018-01-25T10:25:14Z</time>
            </trkpt>
            <trkpt lat="43.331224000" lon="5.035500000">
                <ele>3.000000</ele>
                <time>2018-01-25T10:25:22Z</time>
            </trkpt>
            <trkpt lat="43.331299000" lon="5.035423000">
                <ele>3.000000</ele>
                <time>2018-01-25T10:25:30Z</time>
            </trkpt>
            <trkpt lat="43.331374000" lon="5.035321000">
                <ele>3.000000</ele>
                <time>2018-01-25T10:25:39Z</time>
            </trkpt>
            <trkpt lat="43.331457000" lon="5.035222000">
                <ele>3.000000</ele>
                <time>2018-01-25T10:25:48Z</time>
            </trkpt>
            <trkpt lat="43.331529000" lon="5.035123000">
                <ele>3.000000</ele>
                <time>2018-01-25T10:25:57Z</time>
            </trkpt>
            <trkpt lat="43.331603000" lon="5.035044000">
                <ele>3.000000</ele>
                <time>2018-01-25T10:26:05Z</time>
            </trkpt>
            <trkpt lat="43.331685000" lon="5.034973000">
                <ele>3.000000</ele>
                <time>2018-01-25T10:26:13Z</time>
            </trkpt>
            <trkpt lat="43.331762000" lon="5.034912000">
                <ele>3.000000</ele>
                <time>2018-01-25T10:26:20Z</time>
            </trkpt>
            <trkpt lat="43.331832000" lon="5.034834000">
                <ele>3.000000</ele>
                <time>2018-01-25T10:26:28Z</time>
            </trkpt>
            <trkpt lat="43.331910000" lon="5.034750000">
                <ele>3.000000</ele>
                <time>2018-01-25T10:26:35Z</time>
            </trkpt>
            <trkpt lat="43.331985000" lon="5.034671000">
                <ele>3.000000</ele>
                <time>2018-01-25T10:26:43Z</time>
            </trkpt>
            <trkpt lat="43.332059000" lon="5.034587000">
                <ele>2.000000</ele>
                <time>2018-01-25T10:26:51Z</time>
            </trkpt>
            <trkpt lat="43.332156000" lon="5.034512000">
                <ele>2.000000</ele>
                <time>2018-01-25T10:26:59Z</time>
            </trkpt>
            <trkpt lat="43.332239000" lon="5.034423000">
                <ele>2.000000</ele>
                <time>2018-01-25T10:27:07Z</time>
            </trkpt>
            <trkpt lat="43.332320000" lon="5.034330000">
                <ele>1.000000</ele>
                <time>2018-01-25T10:27:15Z</time>
            </trkpt>
            <trkpt lat="43.332411000" lon="5.034260000">
                <ele>1.000000</ele>
                <time>2018-01-25T10:27:24Z</time>
            </trkpt>
            <trkpt lat="43.332491000" lon="5.034186000">
                <ele>0.000000</ele>
                <time>2018-01-25T10:27:32Z</time>
            </trkpt>
            <trkpt lat="43.332574000" lon="5.034131000">
                <ele>0.000000</ele>
                <time>2018-01-25T10:27:40Z</time>
            </trkpt>
            <trkpt lat="43.332666000" lon="5.034082000">
                <ele>1.000000</ele>
                <time>2018-01-25T10:27:49Z</time>
            </trkpt>
            <trkpt lat="43.332755000" lon="5.034030000">
                <ele>1.000000</ele>
                <time>2018-01-25T10:27:57Z</time>
            </trkpt>
            <trkpt lat="43.332840000" lon="5.034093000">
                <ele>2.000000</ele>
                <time>2018-01-25T10:28:17Z</time>
            </trkpt>
            <trkpt lat="43.332926000" lon="5.034141000">
                <ele>3.000000</ele>
                <time>2018-01-25T10:28:39Z</time>
            </trkpt>
            <trkpt lat="43.333000000" lon="5.034081000">
                <ele>3.000000</ele>
                <time>2018-01-25T10:28:57Z</time>
            </trkpt>
            <trkpt lat="43.333103000" lon="5.034046000">
                <ele>3.000000</ele>
                <time>2018-01-25T10:29:07Z</time>
            </trkpt>
            <trkpt lat="43.333184000" lon="5.033977000">
                <ele>4.000000</ele>
                <time>2018-01-25T10:29:16Z</time>
            </trkpt>
            <trkpt lat="43.333267000" lon="5.033922000">
                <ele>4.000000</ele>
                <time>2018-01-25T10:29:26Z</time>
            </trkpt>
            <trkpt lat="43.333360000" lon="5.033877000">
                <ele>4.000000</ele>
                <time>2018-01-25T10:29:35Z</time>
            </trkpt>
            <trkpt lat="43.333360000" lon="5.033767000">
                <ele>4.000000</ele>
                <time>2018-01-25T10:29:46Z</time>
            </trkpt>
            <trkpt lat="43.333388000" lon="5.033638000">
                <ele>4.000000</ele>
                <time>2018-01-25T10:29:55Z</time>
            </trkpt>
            <trkpt lat="43.333440000" lon="5.033530000">
                <ele>4.000000</ele>
                <time>2018-01-25T10:30:06Z</time>
            </trkpt>
            <trkpt lat="43.333494000" lon="5.033413000">
                <ele>4.000000</ele>
                <time>2018-01-25T10:30:16Z</time>
            </trkpt>
            <trkpt lat="43.333564000" lon="5.033334000">
                <ele>4.000000</ele>
                <time>2018-01-25T10:30:43Z</time>
            </trkpt>
            <trkpt lat="43.333645000" lon="5.033265000">
                <ele>4.000000</ele>
                <time>2018-01-25T10:30:58Z</time>
            </trkpt>
            <trkpt lat="43.333730000" lon="5.033201000">
                <ele>4.000000</ele>
                <time>2018-01-25T10:31:09Z</time>
            </trkpt>
            <trkpt lat="43.333798000" lon="5.033107000">
                <ele>4.000000</ele>
                <time>2018-01-25T10:31:19Z</time>
            </trkpt>
            <trkpt lat="43.333865000" lon="5.033012000">
                <ele>4.000000</ele>
                <time>2018-01-25T10:31:31Z</time>
            </trkpt>
            <trkpt lat="43.333937000" lon="5.032925000">
                <ele>4.000000</ele>
                <time>2018-01-25T10:31:40Z</time>
            </trkpt>
            <trkpt lat="43.333998000" lon="5.032840000">
                <ele>4.000000</ele>
                <time>2018-01-25T10:31:48Z</time>
            </trkpt>
            <trkpt lat="43.334073000" lon="5.032753000">
                <ele>4.000000</ele>
                <time>2018-01-25T10:31:57Z</time>
            </trkpt>
            <trkpt lat="43.334132000" lon="5.032645000">
                <ele>4.000000</ele>
                <time>2018-01-25T10:32:06Z</time>
            </trkpt>
            <trkpt lat="43.334187000" lon="5.032539000">
                <ele>4.000000</ele>
                <time>2018-01-25T10:32:15Z</time>
            </trkpt>
            <trkpt lat="43.334244000" lon="5.032426000">
                <ele>4.000000</ele>
                <time>2018-01-25T10:32:24Z</time>
            </trkpt>
            <trkpt lat="43.334295000" lon="5.032327000">
                <ele>4.000000</ele>
                <time>2018-01-25T10:32:35Z</time>
            </trkpt>
            <trkpt lat="43.334348000" lon="5.032208000">
                <ele>3.000000</ele>
                <time>2018-01-25T10:32:46Z</time>
            </trkpt>
            <trkpt lat="43.334413000" lon="5.032138000">
                <ele>3.000000</ele>
                <time>2018-01-25T10:32:58Z</time>
            </trkpt>
            <trkpt lat="43.334496000" lon="5.032074000">
                <ele>3.000000</ele>
                <time>2018-01-25T10:33:10Z</time>
            </trkpt>
            <trkpt lat="43.334568000" lon="5.031999000">
                <ele>3.000000</ele>
                <time>2018-01-25T10:33:20Z</time>
            </trkpt>
            <trkpt lat="43.334654000" lon="5.031969000">
                <ele>3.000000</ele>
                <time>2018-01-25T10:33:29Z</time>
            </trkpt>
            <trkpt lat="43.334758000" lon="5.032034000">
                <ele>3.000000</ele>
                <time>2018-01-25T10:33:42Z</time>
            </trkpt>
            <trkpt lat="43.334841000" lon="5.032098000">
                <ele>4.000000</ele>
                <time>2018-01-25T10:33:51Z</time>
            </trkpt>
            <trkpt lat="43.334910000" lon="5.032183000">
                <ele>4.000000</ele>
                <time>2018-01-25T10:34:02Z</time>
            </trkpt>
            <trkpt lat="43.334946000" lon="5.032296000">
                <ele>4.000000</ele>
                <time>2018-01-25T10:34:14Z</time>
            </trkpt>
            <trkpt lat="43.335028000" lon="5.032371000">
                <ele>5.000000</ele>
                <time>2018-01-25T10:34:26Z</time>
            </trkpt>
            <trkpt lat="43.335096000" lon="5.032449000">
                <ele>5.000000</ele>
                <time>2018-01-25T10:34:37Z</time>
            </trkpt>
            <trkpt lat="43.335181000" lon="5.032527000">
                <ele>6.000000</ele>
                <time>2018-01-25T10:34:46Z</time>
            </trkpt>
            <trkpt lat="43.335283000" lon="5.032590000">
                <ele>6.000000</ele>
                <time>2018-01-25T10:34:56Z</time>
            </trkpt>
            <trkpt lat="43.335367000" lon="5.032681000">
                <ele>7.000000</ele>
                <time>2018-01-25T10:35:06Z</time>
            </trkpt>
            <trkpt lat="43.335434000" lon="5.032756000">
                <ele>7.000000</ele>
                <time>2018-01-25T10:35:16Z</time>
            </trkpt>
            <trkpt lat="43.335520000" lon="5.032797000">
                <ele>8.000000</ele>
                <time>2018-01-25T10:35:25Z</time>
            </trkpt>
            <trkpt lat="43.335611000" lon="5.032860000">
                <ele>8.000000</ele>
                <time>2018-01-25T10:35:34Z</time>
            </trkpt>
            <trkpt lat="43.335699000" lon="5.032903000">
                <ele>8.000000</ele>
                <time>2018-01-25T10:35:43Z</time>
            </trkpt>
            <trkpt lat="43.335780000" lon="5.032863000">
                <ele>9.000000</ele>
                <time>2018-01-25T10:35:52Z</time>
            </trkpt>
            <trkpt lat="43.335877000" lon="5.032889000">
                <ele>9.000000</ele>
                <time>2018-01-25T10:36:02Z</time>
            </trkpt>
            <trkpt lat="43.335979000" lon="5.032927000">
                <ele>10.000000</ele>
                <time>2018-01-25T10:36:12Z</time>
            </trkpt>
            <trkpt lat="43.336076000" lon="5.032969000">
                <ele>10.000000</ele>
                <time>2018-01-25T10:36:28Z</time>
            </trkpt>
            <trkpt lat="43.336177000" lon="5.032991000">
                <ele>11.000000</ele>
                <time>2018-01-25T10:36:42Z</time>
            </trkpt>
            <trkpt lat="43.336325000" lon="5.033015000">
                <ele>11.000000</ele>
                <time>2018-01-25T10:36:57Z</time>
            </trkpt>
            <trkpt lat="43.336431000" lon="5.033013000">
                <ele>12.000000</ele>
                <time>2018-01-25T10:37:08Z</time>
            </trkpt>
            <trkpt lat="43.336505704" lon="5.033211401">
                <ele>7.000000</ele>
                <time>2017-12-14T14:52:27Z</time>
            </trkpt>
            <trkpt lat="43.336463309" lon="5.033357479">
                <ele>12.000000</ele>
                <time>2017-12-14T14:52:38Z</time>
            </trkpt>
            <trkpt lat="43.336357268" lon="5.033552660">
                <ele>12.000000</ele>
                <time>2017-12-14T14:52:56Z</time>
            </trkpt>
            <trkpt lat="43.336146342" lon="5.033896882">
                <ele>12.000000</ele>
                <time>2017-12-14T14:53:06Z</time>
            </trkpt>
            <trkpt lat="43.335993085" lon="5.034182225">
                <ele>12.000000</ele>
                <time>2017-12-14T14:53:15Z</time>
            </trkpt>
            <trkpt lat="43.335885116" lon="5.034454299">
                <ele>12.000000</ele>
                <time>2017-12-14T14:53:25Z</time>
            </trkpt>
            <trkpt lat="43.335785674" lon="5.034834554">
                <ele>12.000000</ele>
                <time>2017-12-14T14:53:36Z</time>
            </trkpt>
            <trkpt lat="43.335709068" lon="5.035200485">
                <ele>11.000000</ele>
                <time>2017-12-14T14:53:49Z</time>
            </trkpt>
            <trkpt lat="43.335509748" lon="5.035529846">
                <ele>11.000000</ele>
                <time>2017-12-14T14:53:59Z</time>
            </trkpt>
            <trkpt lat="43.335346803" lon="5.035753137">
                <ele>11.000000</ele>
                <time>2017-12-14T14:54:09Z</time>
            </trkpt>
            <trkpt lat="43.335896097" lon="5.035809779">
                <ele>12.000000</ele>
                <time>2017-12-14T14:54:20Z</time>
            </trkpt>
            <trkpt lat="43.336152362" lon="5.035898825">
                <ele>13.000000</ele>
                <time>2017-12-14T14:54:49Z</time>
            </trkpt>
            <trkpt lat="43.336498005" lon="5.035560948">
                <ele>14.000000</ele>
                <time>2017-12-14T14:55:22Z</time>
            </trkpt>
            <trkpt lat="43.336947038" lon="5.035582076">
                <ele>16.000000</ele>
                <time>2017-12-14T14:55:39Z</time>
            </trkpt>
            <trkpt lat="43.337134407" lon="5.035729471">
                <ele>17.000000</ele>
                <time>2017-12-14T14:55:59Z</time>
            </trkpt>
            <trkpt lat="43.337242810" lon="5.035888549">
                <ele>17.000000</ele>
                <time>2017-12-14T14:56:13Z</time>
            </trkpt>
            <trkpt lat="43.337293154" lon="5.036121883">
                <ele>17.000000</ele>
                <time>2017-12-14T14:56:56Z</time>
            </trkpt>
            <trkpt lat="43.337345427" lon="5.036278320">
                <ele>17.000000</ele>
                <time>2017-12-14T14:57:14Z</time>
            </trkpt>
            <trkpt lat="43.337536652" lon="5.036271923">
                <ele>18.000000</ele>
                <time>2017-12-14T14:57:31Z</time>
            </trkpt>
            <trkpt lat="43.337704268" lon="5.036310607">
                <ele>18.000000</ele>
                <time>2017-12-14T14:57:42Z</time>
            </trkpt>
            <trkpt lat="43.337804144" lon="5.036361501">
                <ele>19.000000</ele>
                <time>2017-12-14T14:57:54Z</time>
            </trkpt>
            <trkpt lat="43.337847987" lon="5.036413351">
                <ele>19.000000</ele>
                <time>2017-12-14T15:06:14Z</time>
            </trkpt>
            <trkpt lat="43.337880122" lon="5.036476455">
                <ele>18.000000</ele>
                <time>2017-12-14T15:06:23Z</time>
            </trkpt>
            <trkpt lat="43.337806156" lon="5.036499454">
                <ele>15.000000</ele>
                <time>2017-12-14T15:06:33Z</time>
            </trkpt>
            <trkpt lat="43.337780004" lon="5.036647813">
                <ele>15.000000</ele>
                <time>2017-12-14T15:06:43Z</time>
            </trkpt>
            <trkpt lat="43.337754775" lon="5.036829030">
                <ele>16.000000</ele>
                <time>2017-12-14T15:06:55Z</time>
            </trkpt>
            <trkpt lat="43.337701382" lon="5.036993567">
                <ele>16.000000</ele>
                <time>2017-12-14T15:07:05Z</time>
            </trkpt>
            <trkpt lat="43.337626616" lon="5.037022484">
                <ele>16.000000</ele>
                <time>2017-12-14T15:07:18Z</time>
            </trkpt>
            <trkpt lat="43.337662322" lon="5.037017036">
                <ele>16.000000</ele>
                <time>2017-12-14T15:08:19Z</time>
            </trkpt>
            <trkpt lat="43.337733150" lon="5.036880327">
                <ele>16.000000</ele>
                <time>2017-12-14T15:08:31Z</time>
            </trkpt>
            <trkpt lat="43.337757960" lon="5.036735237">
                <ele>16.000000</ele>
                <time>2017-12-14T15:08:45Z</time>
            </trkpt>
            <trkpt lat="43.337779502" lon="5.036582099">
                <ele>16.000000</ele>
                <time>2017-12-14T15:08:56Z</time>
            </trkpt>
            <trkpt lat="43.337857477" lon="5.036483088">
                <ele>18.000000</ele>
                <time>2017-12-14T15:09:08Z</time>
            </trkpt>
            <trkpt lat="43.337896189" lon="5.036508007">
                <ele>18.000000</ele>
                <time>2017-12-14T15:09:18Z</time>
            </trkpt>
            <trkpt lat="43.337941285" lon="5.036502431">
                <ele>19.000000</ele>
                <time>2017-12-14T15:12:14Z</time>
            </trkpt>
            <trkpt lat="43.337999778" lon="5.036569526">
                <ele>16.000000</ele>
            </trkpt>
            <trkpt lat="43.338075299" lon="5.036462657">
                <ele>16.000000</ele>
            </trkpt>
            <trkpt lat="43.338143779" lon="5.036279345">
                <ele>16.000000</ele>
            </trkpt>
            <trkpt lat="43.338127853" lon="5.036104415">
                <ele>16.000000</ele>
            </trkpt>
            <trkpt lat="43.338128440" lon="5.035937782">
                <ele>16.000000</ele>
            </trkpt>
            <trkpt lat="43.338115448" lon="5.035790848">
                <ele>16.000000</ele>
            </trkpt>
            <trkpt lat="43.338019056" lon="5.035706693">
                <ele>16.000000</ele>
            </trkpt>
            <trkpt lat="43.337943787" lon="5.035553305">
                <ele>15.000000</ele>
            </trkpt>
            <trkpt lat="43.337859046" lon="5.035400251">
                <ele>13.000000</ele>
            </trkpt>
            <trkpt lat="43.337847492" lon="5.035312382">
                <ele>19.000000</ele>
                <time>2017-12-14T15:16:35Z</time>
            </trkpt>
            <trkpt lat="43.337920150" lon="5.035305619">
                <ele>16.000000</ele>
                <time>2017-12-14T15:18:05Z</time>
            </trkpt>
            <trkpt lat="43.337979075" lon="5.035273097">
                <ele>16.000000</ele>
                <time>2017-12-14T15:19:29Z</time>
            </trkpt>
            <trkpt lat="43.338106396" lon="5.035292041">
                <ele>17.000000</ele>
                <time>2017-12-14T15:19:42Z</time>
            </trkpt>
            <trkpt lat="43.338251486" lon="5.035326239">
                <ele>17.000000</ele>
                <time>2017-12-14T15:19:53Z</time>
            </trkpt>
            <trkpt lat="43.338363720" lon="5.035333699">
                <ele>17.000000</ele>
                <time>2017-12-14T15:20:03Z</time>
            </trkpt>
            <trkpt lat="43.338458939" lon="5.035272343">
                <ele>18.000000</ele>
                <time>2017-12-14T15:20:12Z</time>
            </trkpt>
            <trkpt lat="43.338413000" lon="5.035132000">
                <ele>21.000000</ele>
                <time>2018-01-25T10:58:18Z</time>
            </trkpt>
            <trkpt lat="43.338467000" lon="5.035225000">
                <ele>22.000000</ele>
                <time>2018-01-25T10:58:28Z</time>
            </trkpt>
            <trkpt lat="43.338503000" lon="5.035186000">
                <ele>22.000000</ele>
                <time>2018-01-25T10:59:09Z</time>
            </trkpt>
            <trkpt lat="43.338571000" lon="5.035124000">
                <ele>22.000000</ele>
                <time>2018-01-25T10:59:41Z</time>
            </trkpt>
            <trkpt lat="43.338667000" lon="5.035054000">
                <ele>22.000000</ele>
                <time>2018-01-25T10:59:51Z</time>
            </trkpt>
            <trkpt lat="43.338775000" lon="5.035003000">
                <ele>22.000000</ele>
                <time>2018-01-25T11:00:01Z</time>
            </trkpt>
            <trkpt lat="43.338852000" lon="5.034922000">
                <ele>22.000000</ele>
                <time>2018-01-25T11:00:10Z</time>
            </trkpt>
            <trkpt lat="43.338926000" lon="5.034822000">
                <ele>22.000000</ele>
                <time>2018-01-25T11:00:26Z</time>
            </trkpt>
            <trkpt lat="43.339001000" lon="5.034750000">
                <ele>22.000000</ele>
                <time>2018-01-25T11:00:34Z</time>
            </trkpt>
            <trkpt lat="43.339077000" lon="5.034674000">
                <ele>22.000000</ele>
                <time>2018-01-25T11:00:43Z</time>
            </trkpt>
            <trkpt lat="43.339173000" lon="5.034607000">
                <ele>22.000000</ele>
                <time>2018-01-25T11:01:03Z</time>
            </trkpt>
            <trkpt lat="43.339231000" lon="5.034487000">
                <ele>22.000000</ele>
                <time>2018-01-25T11:01:11Z</time>
            </trkpt>
            <trkpt lat="43.339296000" lon="5.034382000">
                <ele>22.000000</ele>
                <time>2018-01-25T11:01:22Z</time>
            </trkpt>
            <trkpt lat="43.339307000" lon="5.034348000">
                <ele>22.000000</ele>
                <time>2018-01-25T11:01:40Z</time>
            </trkpt>
            <trkpt lat="43.339268000" lon="5.034380000">
                <ele>22.000000</ele>
                <time>2018-01-25T11:02:21Z</time>
            </trkpt>
            <trkpt lat="43.339207000" lon="5.034491000">
                <ele>22.000000</ele>
                <time>2018-01-25T11:03:02Z</time>
            </trkpt>
            <trkpt lat="43.339203000" lon="5.034645000">
                <ele>22.000000</ele>
                <time>2018-01-25T11:03:14Z</time>
            </trkpt>
            <trkpt lat="43.339287000" lon="5.034714000">
                <ele>22.000000</ele>
                <time>2018-01-25T11:03:40Z</time>
            </trkpt>
            <trkpt lat="43.339383000" lon="5.034757000">
                <ele>22.000000</ele>
                <time>2018-01-25T11:03:51Z</time>
            </trkpt>
            <trkpt lat="43.339484000" lon="5.034797000">
                <ele>23.000000</ele>
                <time>2018-01-25T11:04:02Z</time>
            </trkpt>
            <trkpt lat="43.339568000" lon="5.034902000">
                <ele>23.000000</ele>
                <time>2018-01-25T11:04:13Z</time>
            </trkpt>
            <trkpt lat="43.339664000" lon="5.034951000">
                <ele>23.000000</ele>
                <time>2018-01-25T11:04:23Z</time>
            </trkpt>
            <trkpt lat="43.339759000" lon="5.034955000">
                <ele>23.000000</ele>
                <time>2018-01-25T11:04:33Z</time>
            </trkpt>
            <trkpt lat="43.339859000" lon="5.034974000">
                <ele>23.000000</ele>
                <time>2018-01-25T11:04:43Z</time>
            </trkpt>
            <trkpt lat="43.339939000" lon="5.035092000">
                <ele>23.000000</ele>
                <time>2018-01-25T11:05:47Z</time>
            </trkpt>
            <trkpt lat="43.340022000" lon="5.035156000">
                <ele>23.000000</ele>
                <time>2018-01-25T11:05:59Z</time>
            </trkpt>
            <trkpt lat="43.340119000" lon="5.035195000">
                <ele>23.000000</ele>
                <time>2018-01-25T11:06:10Z</time>
            </trkpt>
            <trkpt lat="43.340216000" lon="5.035210000">
                <ele>23.000000</ele>
                <time>2018-01-25T11:06:22Z</time>
            </trkpt>
            <trkpt lat="43.340320000" lon="5.035232000">
                <ele>23.000000</ele>
                <time>2018-01-25T11:06:35Z</time>
            </trkpt>
            <trkpt lat="43.340428000" lon="5.035256000">
                <ele>24.000000</ele>
                <time>2018-01-25T11:06:46Z</time>
            </trkpt>
            <trkpt lat="43.340533000" lon="5.035247000">
                <ele>24.000000</ele>
                <time>2018-01-25T11:06:57Z</time>
            </trkpt>
            <trkpt lat="43.340639000" lon="5.035240000">
                <ele>24.000000</ele>
                <time>2018-01-25T11:07:08Z</time>
            </trkpt>
            <trkpt lat="43.340739000" lon="5.035260000">
                <ele>24.000000</ele>
                <time>2018-01-25T11:07:19Z</time>
            </trkpt>
            <trkpt lat="43.340837000" lon="5.035303000">
                <ele>24.000000</ele>
                <time>2018-01-25T11:07:36Z</time>
            </trkpt>
            <trkpt lat="43.340931000" lon="5.035350000">
                <ele>25.000000</ele>
                <time>2018-01-25T11:07:47Z</time>
            </trkpt>
            <trkpt lat="43.341042000" lon="5.035391000">
                <ele>25.000000</ele>
                <time>2018-01-25T11:08:06Z</time>
            </trkpt>
            <trkpt lat="43.341137000" lon="5.035434000">
                <ele>25.000000</ele>
                <time>2018-01-25T11:08:19Z</time>
            </trkpt>
            <trkpt lat="43.341243000" lon="5.035475000">
                <ele>25.000000</ele>
                <time>2018-01-25T11:08:31Z</time>
            </trkpt>
            <trkpt lat="43.341339000" lon="5.035534000">
                <ele>25.000000</ele>
                <time>2018-01-25T11:08:44Z</time>
            </trkpt>
            <trkpt lat="43.341452000" lon="5.035603000">
                <ele>26.000000</ele>
                <time>2018-01-25T11:09:06Z</time>
            </trkpt>
            <trkpt lat="43.341520000" lon="5.035719000">
                <ele>26.000000</ele>
                <time>2018-01-25T11:09:21Z</time>
            </trkpt>
            <trkpt lat="43.341601000" lon="5.035829000">
                <ele>26.000000</ele>
                <time>2018-01-25T11:09:34Z</time>
            </trkpt>
            <trkpt lat="43.341690000" lon="5.035908000">
                <ele>26.000000</ele>
                <time>2018-01-25T11:09:45Z</time>
            </trkpt>
            <trkpt lat="43.341750000" lon="5.036015000">
                <ele>26.000000</ele>
                <time>2018-01-25T11:09:55Z</time>
            </trkpt>
            <trkpt lat="43.341809000" lon="5.036124000">
                <ele>26.000000</ele>
                <time>2018-01-25T11:10:04Z</time>
            </trkpt>
            <trkpt lat="43.341892000" lon="5.036213000">
                <ele>27.000000</ele>
                <time>2018-01-25T11:10:14Z</time>
            </trkpt>
            <trkpt lat="43.341987000" lon="5.036253000">
                <ele>27.000000</ele>
                <time>2018-01-25T11:10:36Z</time>
            </trkpt>
            <trkpt lat="43.342081000" lon="5.036303000">
                <ele>27.000000</ele>
                <time>2018-01-25T11:10:46Z</time>
            </trkpt>
            <trkpt lat="43.342172000" lon="5.036353000">
                <ele>27.000000</ele>
                <time>2018-01-25T11:10:55Z</time>
            </trkpt>
            <trkpt lat="43.342264000" lon="5.036416000">
                <ele>27.000000</ele>
                <time>2018-01-25T11:11:05Z</time>
            </trkpt>
            <trkpt lat="43.342344000" lon="5.036495000">
                <ele>28.000000</ele>
                <time>2018-01-25T11:11:14Z</time>
            </trkpt>
            <trkpt lat="43.342424000" lon="5.036559000">
                <ele>28.000000</ele>
                <time>2018-01-25T11:11:23Z</time>
            </trkpt>
            <trkpt lat="43.342518000" lon="5.036587000">
                <ele>28.000000</ele>
                <time>2018-01-25T11:11:31Z</time>
            </trkpt>
            <trkpt lat="43.342618000" lon="5.036575000">
                <ele>28.000000</ele>
                <time>2018-01-25T11:11:40Z</time>
            </trkpt>
            <trkpt lat="43.342720000" lon="5.036577000">
                <ele>28.000000</ele>
                <time>2018-01-25T11:11:51Z</time>
            </trkpt>
            <trkpt lat="43.342826000" lon="5.036561000">
                <ele>28.000000</ele>
                <time>2018-01-25T11:12:01Z</time>
            </trkpt>
            <trkpt lat="43.342930000" lon="5.036564000">
                <ele>29.000000</ele>
                <time>2018-01-25T11:12:12Z</time>
            </trkpt>
            <trkpt lat="43.343028000" lon="5.036593000">
                <ele>29.000000</ele>
                <time>2018-01-25T11:12:22Z</time>
            </trkpt>
            <trkpt lat="43.343126000" lon="5.036613000">
                <ele>29.000000</ele>
                <time>2018-01-25T11:12:31Z</time>
            </trkpt>
            <trkpt lat="43.343230000" lon="5.036668000">
                <ele>29.000000</ele>
                <time>2018-01-25T11:12:41Z</time>
            </trkpt>
            <trkpt lat="43.343323000" lon="5.036723000">
                <ele>29.000000</ele>
                <time>2018-01-25T11:12:50Z</time>
            </trkpt>
            <trkpt lat="43.343424000" lon="5.036774000">
                <ele>30.000000</ele>
                <time>2018-01-25T11:13:00Z</time>
            </trkpt>
            <trkpt lat="43.343534000" lon="5.036816000">
                <ele>30.000000</ele>
                <time>2018-01-25T11:13:09Z</time>
            </trkpt>
            <trkpt lat="43.343642000" lon="5.036855000">
                <ele>30.000000</ele>
                <time>2018-01-25T11:13:18Z</time>
            </trkpt>
            <trkpt lat="43.343757000" lon="5.036906000">
                <ele>31.000000</ele>
                <time>2018-01-25T11:13:28Z</time>
            </trkpt>
            <trkpt lat="43.343857000" lon="5.036952000">
                <ele>31.000000</ele>
                <time>2018-01-25T11:13:38Z</time>
            </trkpt>
            <trkpt lat="43.343925000" lon="5.037045000">
                <ele>32.000000</ele>
                <time>2018-01-25T11:13:48Z</time>
            </trkpt>
            <trkpt lat="43.343891000" lon="5.037171000">
                <ele>32.000000</ele>
                <time>2018-01-25T11:13:59Z</time>
            </trkpt>
            <trkpt lat="43.343802000" lon="5.037230000">
                <ele>32.000000</ele>
                <time>2018-01-25T11:14:46Z</time>
            </trkpt>
            <trkpt lat="43.343692000" lon="5.037301000">
                <ele>31.000000</ele>
                <time>2018-01-25T11:14:59Z</time>
            </trkpt>
            <trkpt lat="43.343585000" lon="5.037342000">
                <ele>31.000000</ele>
                <time>2018-01-25T11:15:09Z</time>
            </trkpt>
            <trkpt lat="43.343471000" lon="5.037363000">
                <ele>31.000000</ele>
                <time>2018-01-25T11:15:24Z</time>
            </trkpt>
            <trkpt lat="43.343391000" lon="5.037421000">
                <ele>31.000000</ele>
                <time>2018-01-25T11:15:32Z</time>
            </trkpt>
            <trkpt lat="43.343327000" lon="5.037511000">
                <ele>31.000000</ele>
                <time>2018-01-25T11:15:40Z</time>
            </trkpt>
            <trkpt lat="43.343294000" lon="5.037629000">
                <ele>31.000000</ele>
                <time>2018-01-25T11:15:47Z</time>
            </trkpt>
            <trkpt lat="43.343240000" lon="5.037743000">
                <ele>31.000000</ele>
                <time>2018-01-25T11:15:53Z</time>
            </trkpt>
            <trkpt lat="43.343196000" lon="5.037846000">
                <ele>30.000000</ele>
                <time>2018-01-25T11:16:04Z</time>
            </trkpt>
            <trkpt lat="43.343166000" lon="5.037982000">
                <ele>30.000000</ele>
                <time>2018-01-25T11:16:13Z</time>
            </trkpt>
            <trkpt lat="43.343137000" lon="5.038125000">
                <ele>30.000000</ele>
                <time>2018-01-25T11:16:23Z</time>
            </trkpt>
            <trkpt lat="43.343135000" lon="5.038266000">
                <ele>30.000000</ele>
                <time>2018-01-25T11:16:32Z</time>
            </trkpt>
            <trkpt lat="43.343139000" lon="5.038393000">
                <ele>30.000000</ele>
                <time>2018-01-25T11:16:42Z</time>
            </trkpt>
            <trkpt lat="43.343135000" lon="5.038542000">
                <ele>30.000000</ele>
                <time>2018-01-25T11:16:51Z</time>
            </trkpt>
            <trkpt lat="43.343119000" lon="5.038684000">
                <ele>31.000000</ele>
                <time>2018-01-25T11:17:02Z</time>
            </trkpt>
            <trkpt lat="43.343105000" lon="5.038812000">
                <ele>31.000000</ele>
                <time>2018-01-25T11:17:10Z</time>
            </trkpt>
            <trkpt lat="43.343079000" lon="5.038942000">
                <ele>31.000000</ele>
                <time>2018-01-25T11:17:19Z</time>
            </trkpt>
            <trkpt lat="43.343019000" lon="5.039068000">
                <ele>30.000000</ele>
                <time>2018-01-25T11:17:29Z</time>
            </trkpt>
            <trkpt lat="43.342974000" lon="5.039186000">
                <ele>30.000000</ele>
                <time>2018-01-25T11:17:39Z</time>
            </trkpt>
            <trkpt lat="43.342910000" lon="5.039304000">
                <ele>30.000000</ele>
                <time>2018-01-25T11:17:49Z</time>
            </trkpt>
            <trkpt lat="43.342851000" lon="5.039410000">
                <ele>30.000000</ele>
                <time>2018-01-25T11:17:59Z</time>
            </trkpt>
            <trkpt lat="43.342791000" lon="5.039533000">
                <ele>30.000000</ele>
                <time>2018-01-25T11:18:09Z</time>
            </trkpt>
            <trkpt lat="43.342732000" lon="5.039652000">
                <ele>30.000000</ele>
                <time>2018-01-25T11:18:19Z</time>
            </trkpt>
            <trkpt lat="43.342668000" lon="5.039748000">
                <ele>29.000000</ele>
                <time>2018-01-25T11:18:28Z</time>
            </trkpt>
            <trkpt lat="43.342610000" lon="5.039866000">
                <ele>29.000000</ele>
                <time>2018-01-25T11:18:38Z</time>
            </trkpt>
            <trkpt lat="43.342554000" lon="5.039998000">
                <ele>29.000000</ele>
                <time>2018-01-25T11:18:49Z</time>
            </trkpt>
            <trkpt lat="43.342493000" lon="5.040109000">
                <ele>29.000000</ele>
                <time>2018-01-25T11:18:59Z</time>
            </trkpt>
            <trkpt lat="43.342430000" lon="5.040202000">
                <ele>30.000000</ele>
                <time>2018-01-25T11:19:10Z</time>
            </trkpt>
            <trkpt lat="43.342364000" lon="5.040291000">
                <ele>30.000000</ele>
                <time>2018-01-25T11:19:20Z</time>
            </trkpt>
            <trkpt lat="43.342296000" lon="5.040373000">
                <ele>30.000000</ele>
                <time>2018-01-25T11:19:32Z</time>
            </trkpt>
            <trkpt lat="43.342234000" lon="5.040473000">
                <ele>30.000000</ele>
                <time>2018-01-25T11:19:44Z</time>
            </trkpt>
            <trkpt lat="43.342153000" lon="5.040569000">
                <ele>30.000000</ele>
                <time>2018-01-25T11:19:55Z</time>
            </trkpt>
            <trkpt lat="43.342138000" lon="5.040700000">
                <ele>30.000000</ele>
                <time>2018-01-25T11:20:12Z</time>
            </trkpt>
            <trkpt lat="43.342144000" lon="5.040821000">
                <ele>31.000000</ele>
                <time>2018-01-25T11:20:35Z</time>
            </trkpt>
            <trkpt lat="43.342149000" lon="5.040950000">
                <ele>31.000000</ele>
                <time>2018-01-25T11:20:48Z</time>
            </trkpt>
            <trkpt lat="43.342231000" lon="5.041020000">
                <ele>32.000000</ele>
                <time>2018-01-25T11:21:00Z</time>
            </trkpt>
            <trkpt lat="43.342325000" lon="5.041054000">
                <ele>32.000000</ele>
                <time>2018-01-25T11:21:12Z</time>
            </trkpt>
            <trkpt lat="43.342409000" lon="5.041128000">
                <ele>33.000000</ele>
                <time>2018-01-25T11:21:27Z</time>
            </trkpt>
            <trkpt lat="43.342432000" lon="5.041255000">
                <ele>33.000000</ele>
                <time>2018-01-25T11:21:45Z</time>
            </trkpt>
            <trkpt lat="43.342491000" lon="5.041358000">
                <ele>34.000000</ele>
                <time>2018-01-25T11:22:14Z</time>
            </trkpt>
            <trkpt lat="43.342493000" lon="5.041492000">
                <ele>34.000000</ele>
                <time>2018-01-25T11:22:40Z</time>
            </trkpt>
            <trkpt lat="43.342423000" lon="5.041593000">
                <ele>35.000000</ele>
                <time>2018-01-25T11:22:52Z</time>
            </trkpt>
            <trkpt lat="43.342434000" lon="5.041722000">
                <ele>35.000000</ele>
                <time>2018-01-25T11:23:03Z</time>
            </trkpt>
            <trkpt lat="43.342431000" lon="5.041845000">
                <ele>35.000000</ele>
                <time>2018-01-25T11:23:14Z</time>
            </trkpt>
            <trkpt lat="43.342360000" lon="5.041900000">
                <ele>35.000000</ele>
                <time>2018-01-25T11:23:25Z</time>
            </trkpt>
            <trkpt lat="43.342276000" lon="5.041970000">
                <ele>35.000000</ele>
                <time>2018-01-25T11:23:37Z</time>
            </trkpt>
            <trkpt lat="43.342278000" lon="5.042091000">
                <ele>35.000000</ele>
                <time>2018-01-25T11:23:53Z</time>
            </trkpt>
            <trkpt lat="43.342202000" lon="5.042115000">
                <ele>35.000000</ele>
                <time>2018-01-25T11:24:29Z</time>
            </trkpt>
            <trkpt lat="43.342229000" lon="5.042125000">
                <ele>35.000000</ele>
                <time>2018-01-25T11:25:51Z</time>
            </trkpt>
            <trkpt lat="43.342290000" lon="5.042256000">
                <ele>36.000000</ele>
                <time>2018-01-25T11:25:59Z</time>
            </trkpt>
            <trkpt lat="43.342339000" lon="5.042393000">
                <ele>36.000000</ele>
                <time>2018-01-25T11:26:07Z</time>
            </trkpt>
            <trkpt lat="43.342334000" lon="5.042521000">
                <ele>36.000000</ele>
                <time>2018-01-25T11:26:14Z</time>
            </trkpt>
            <trkpt lat="43.342356000" lon="5.042656000">
                <ele>36.000000</ele>
                <time>2018-01-25T11:26:22Z</time>
            </trkpt>
            <trkpt lat="43.342318000" lon="5.042784000">
                <ele>36.000000</ele>
                <time>2018-01-25T11:26:29Z</time>
            </trkpt>
            <trkpt lat="43.342290000" lon="5.042908000">
                <ele>36.000000</ele>
                <time>2018-01-25T11:26:36Z</time>
            </trkpt>
            <trkpt lat="43.342245000" lon="5.043053000">
                <ele>36.000000</ele>
                <time>2018-01-25T11:26:44Z</time>
            </trkpt>
            <trkpt lat="43.342168000" lon="5.043182000">
                <ele>36.000000</ele>
                <time>2018-01-25T11:27:04Z</time>
            </trkpt>
            <trkpt lat="43.342113000" lon="5.043300000">
                <ele>36.000000</ele>
                <time>2018-01-25T11:27:16Z</time>
            </trkpt>
            <trkpt lat="43.342066000" lon="5.043421000">
                <ele>36.000000</ele>
                <time>2018-01-25T11:27:30Z</time>
            </trkpt>
            <trkpt lat="43.342012000" lon="5.043537000">
                <ele>36.000000</ele>
                <time>2018-01-25T11:27:39Z</time>
            </trkpt>
            <trkpt lat="43.341955000" lon="5.043650000">
                <ele>35.000000</ele>
                <time>2018-01-25T11:27:47Z</time>
            </trkpt>
            <trkpt lat="43.341888000" lon="5.043782000">
                <ele>35.000000</ele>
                <time>2018-01-25T11:27:56Z</time>
            </trkpt>
            <trkpt lat="43.341829000" lon="5.043905000">
                <ele>35.000000</ele>
                <time>2018-01-25T11:28:04Z</time>
            </trkpt>
            <trkpt lat="43.341775000" lon="5.044017000">
                <ele>35.000000</ele>
                <time>2018-01-25T11:28:12Z</time>
            </trkpt>
            <trkpt lat="43.341723000" lon="5.044126000">
                <ele>35.000000</ele>
                <time>2018-01-25T11:28:21Z</time>
            </trkpt>
            <trkpt lat="43.341672000" lon="5.044232000">
                <ele>35.000000</ele>
                <time>2018-01-25T11:28:31Z</time>
            </trkpt>
            <trkpt lat="43.341609000" lon="5.044337000">
                <ele>35.000000</ele>
                <time>2018-01-25T11:28:41Z</time>
            </trkpt>
            <trkpt lat="43.341546000" lon="5.044445000">
                <ele>34.000000</ele>
                <time>2018-01-25T11:28:51Z</time>
            </trkpt>
            <trkpt lat="43.341479000" lon="5.044568000">
                <ele>34.000000</ele>
                <time>2018-01-25T11:29:01Z</time>
            </trkpt>
            <trkpt lat="43.341426000" lon="5.044704000">
                <ele>34.000000</ele>
                <time>2018-01-25T11:32:05Z</time>
            </trkpt>
            <trkpt lat="43.341491000" lon="5.044803000">
                <ele>34.000000</ele>
                <time>2018-01-25T11:32:22Z</time>
            </trkpt>
            <trkpt lat="43.341589000" lon="5.044868000">
                <ele>34.000000</ele>
                <time>2018-01-25T11:32:49Z</time>
            </trkpt>
            <trkpt lat="43.341681000" lon="5.044938000">
                <ele>34.000000</ele>
                <time>2018-01-25T11:33:05Z</time>
            </trkpt>
            <trkpt lat="43.341782000" lon="5.044968000">
                <ele>34.000000</ele>
                <time>2018-01-25T11:33:17Z</time>
            </trkpt>
            <trkpt lat="43.341877000" lon="5.044978000">
                <ele>35.000000</ele>
                <time>2018-01-25T11:33:26Z</time>
            </trkpt>
            <trkpt lat="43.341972000" lon="5.045004000">
                <ele>35.000000</ele>
                <time>2018-01-25T11:33:39Z</time>
            </trkpt>
            <trkpt lat="43.342068000" lon="5.045028000">
                <ele>35.000000</ele>
                <time>2018-01-25T11:33:49Z</time>
            </trkpt>
            <trkpt lat="43.342161000" lon="5.045071000">
                <ele>36.000000</ele>
                <time>2018-01-25T11:33:58Z</time>
            </trkpt>
            <trkpt lat="43.342234000" lon="5.045144000">
                <ele>36.000000</ele>
                <time>2018-01-25T11:34:10Z</time>
            </trkpt>
            <trkpt lat="43.342330000" lon="5.045201000">
                <ele>36.000000</ele>
                <time>2018-01-25T11:34:19Z</time>
            </trkpt>
            <trkpt lat="43.342419000" lon="5.045261000">
                <ele>37.000000</ele>
                <time>2018-01-25T11:34:28Z</time>
            </trkpt>
            <trkpt lat="43.342531000" lon="5.045290000">
                <ele>37.000000</ele>
                <time>2018-01-25T11:34:37Z</time>
            </trkpt>
            <trkpt lat="43.342630000" lon="5.045343000">
                <ele>37.000000</ele>
                <time>2018-01-25T11:34:47Z</time>
            </trkpt>
            <trkpt lat="43.342727000" lon="5.045394000">
                <ele>37.000000</ele>
                <time>2018-01-25T11:34:56Z</time>
            </trkpt>
            <trkpt lat="43.342821000" lon="5.045439000">
                <ele>38.000000</ele>
                <time>2018-01-25T11:35:05Z</time>
            </trkpt>
            <trkpt lat="43.342916000" lon="5.045471000">
                <ele>38.000000</ele>
                <time>2018-01-25T11:35:14Z</time>
            </trkpt>
            <trkpt lat="43.343009000" lon="5.045489000">
                <ele>38.000000</ele>
                <time>2018-01-25T11:35:22Z</time>
            </trkpt>
            <trkpt lat="43.343108000" lon="5.045493000">
                <ele>38.000000</ele>
                <time>2018-01-25T11:35:31Z</time>
            </trkpt>
            <trkpt lat="43.343203000" lon="5.045464000">
                <ele>38.000000</ele>
                <time>2018-01-25T11:35:42Z</time>
            </trkpt>
            <trkpt lat="43.343291000" lon="5.045416000">
                <ele>38.000000</ele>
                <time>2018-01-25T11:36:01Z</time>
            </trkpt>
            <trkpt lat="43.343347000" lon="5.045341000">
                <ele>38.000000</ele>
                <time>2018-01-25T11:36:26Z</time>
            </trkpt>
            <trkpt lat="43.343448000" lon="5.045318000">
                <ele>39.000000</ele>
                <time>2018-01-25T11:36:39Z</time>
            </trkpt>
            <trkpt lat="43.343549000" lon="5.045308000">
                <ele>39.000000</ele>
                <time>2018-01-25T11:36:49Z</time>
            </trkpt>
            <trkpt lat="43.343649000" lon="5.045269000">
                <ele>39.000000</ele>
                <time>2018-01-25T11:37:01Z</time>
            </trkpt>
            <trkpt lat="43.343732000" lon="5.045298000">
                <ele>39.000000</ele>
                <time>2018-01-25T11:37:46Z</time>
            </trkpt>
            <trkpt lat="43.343742000" lon="5.045439000">
                <ele>40.000000</ele>
                <time>2018-01-25T11:37:58Z</time>
            </trkpt>
            <trkpt lat="43.343728000" lon="5.045575000">
                <ele>40.000000</ele>
                <time>2018-01-25T11:38:08Z</time>
            </trkpt>
            <trkpt lat="43.343691000" lon="5.045723000">
                <ele>40.000000</ele>
                <time>2018-01-25T11:38:22Z</time>
            </trkpt>
            <trkpt lat="43.343663000" lon="5.045846000">
                <ele>40.000000</ele>
                <time>2018-01-25T11:38:30Z</time>
            </trkpt>
            <trkpt lat="43.343684000" lon="5.045999000">
                <ele>40.000000</ele>
                <time>2018-01-25T11:38:38Z</time>
            </trkpt>
            <trkpt lat="43.343722000" lon="5.046131000">
                <ele>40.000000</ele>
                <time>2018-01-25T11:38:46Z</time>
            </trkpt>
            <trkpt lat="43.343775000" lon="5.046249000">
                <ele>40.000000</ele>
                <time>2018-01-25T11:38:55Z</time>
            </trkpt>
            <trkpt lat="43.343799000" lon="5.046376000">
                <ele>39.000000</ele>
                <time>2018-01-25T11:39:26Z</time>
            </trkpt>
            <trkpt lat="43.343811000" lon="5.046543000">
                <ele>39.000000</ele>
                <time>2018-01-25T11:39:43Z</time>
            </trkpt>
            <trkpt lat="43.343879000" lon="5.046773000">
                <ele>39.000000</ele>
                <time>2018-01-25T11:40:02Z</time>
            </trkpt>
            <trkpt lat="43.343837000" lon="5.046941000">
                <ele>38.000000</ele>
                <time>2018-01-25T11:40:16Z</time>
            </trkpt>
            <trkpt lat="43.343744000" lon="5.047082000">
                <ele>37.000000</ele>
                <time>2018-01-25T11:40:35Z</time>
            </trkpt>
            <trkpt lat="43.343652000" lon="5.047190000">
                <ele>36.000000</ele>
                <time>2018-01-25T11:40:46Z</time>
            </trkpt>
            <trkpt lat="43.343573000" lon="5.047301000">
                <ele>35.000000</ele>
                <time>2018-01-25T11:40:56Z</time>
            </trkpt>
            <trkpt lat="43.343596000" lon="5.047463000">
                <ele>35.000000</ele>
                <time>2018-01-25T11:41:09Z</time>
            </trkpt>
            <trkpt lat="43.343675000" lon="5.047556000">
                <ele>34.000000</ele>
                <time>2018-01-25T11:41:23Z</time>
            </trkpt>
            <trkpt lat="43.343771000" lon="5.047593000">
                <ele>34.000000</ele>
                <time>2018-01-25T11:41:33Z</time>
            </trkpt>
            <trkpt lat="43.343850000" lon="5.047682000">
                <ele>33.000000</ele>
                <time>2018-01-25T11:41:44Z</time>
            </trkpt>
            <trkpt lat="43.343903000" lon="5.047834000">
                <ele>31.000000</ele>
                <time>2018-01-25T11:41:54Z</time>
            </trkpt>
            <trkpt lat="43.343933000" lon="5.047968000">
                <ele>30.000000</ele>
                <time>2018-01-25T11:42:05Z</time>
            </trkpt>
            <trkpt lat="43.343986000" lon="5.048121000">
                <ele>29.000000</ele>
                <time>2018-01-25T11:42:19Z</time>
            </trkpt>
            <trkpt lat="43.344036000" lon="5.048244000">
                <ele>27.000000</ele>
                <time>2018-01-25T11:42:33Z</time>
            </trkpt>
            <trkpt lat="43.344075000" lon="5.048373000">
                <ele>27.000000</ele>
                <time>2018-01-25T11:43:03Z</time>
            </trkpt>
            <trkpt lat="43.344065000" lon="5.048506000">
                <ele>27.000000</ele>
                <time>2018-01-25T11:43:13Z</time>
            </trkpt>
            <trkpt lat="43.344061000" lon="5.048651000">
                <ele>28.000000</ele>
                <time>2018-01-25T11:43:24Z</time>
            </trkpt>
            <trkpt lat="43.344035000" lon="5.048786000">
                <ele>28.000000</ele>
                <time>2018-01-25T11:43:33Z</time>
            </trkpt>
            <trkpt lat="43.344024000" lon="5.048932000">
                <ele>28.000000</ele>
                <time>2018-01-25T11:43:43Z</time>
            </trkpt>
            <trkpt lat="43.343984000" lon="5.049082000">
                <ele>28.000000</ele>
                <time>2018-01-25T11:43:54Z</time>
            </trkpt>
            <trkpt lat="43.343959000" lon="5.049225000">
                <ele>28.000000</ele>
                <time>2018-01-25T11:44:07Z</time>
            </trkpt>
            <trkpt lat="43.343937000" lon="5.049365000">
                <ele>29.000000</ele>
                <time>2018-01-25T11:44:19Z</time>
            </trkpt>
            <trkpt lat="43.343938000" lon="5.049504000">
                <ele>31.000000</ele>
                <time>2018-01-25T11:44:32Z</time>
            </trkpt>
            <trkpt lat="43.343995000" lon="5.049616000">
                <ele>32.000000</ele>
                <time>2018-01-25T11:44:43Z</time>
            </trkpt>
            <trkpt lat="43.344019000" lon="5.049751000">
                <ele>33.000000</ele>
                <time>2018-01-25T11:44:53Z</time>
            </trkpt>
            <trkpt lat="43.344020000" lon="5.049899000">
                <ele>35.000000</ele>
                <time>2018-01-25T11:45:06Z</time>
            </trkpt>
            <trkpt lat="43.344110000" lon="5.049946000">
                <ele>36.000000</ele>
                <time>2018-01-25T11:45:22Z</time>
            </trkpt>
            <trkpt lat="43.344196000" lon="5.049902000">
                <ele>36.000000</ele>
                <time>2018-01-25T11:45:46Z</time>
            </trkpt>
            <trkpt lat="43.344290000" lon="5.049956000">
                <ele>36.000000</ele>
                <time>2018-01-25T11:47:42Z</time>
            </trkpt>
            <trkpt lat="43.344384000" lon="5.050015000">
                <ele>37.000000</ele>
                <time>2018-01-25T11:48:01Z</time>
            </trkpt>
            <trkpt lat="43.344419000" lon="5.050063000">
                <ele>37.000000</ele>
                <time>2018-01-25T11:51:03Z</time>
            </trkpt>
            <trkpt lat="43.344340000" lon="5.049986000">
                <ele>37.000000</ele>
                <time>2018-01-25T11:51:22Z</time>
            </trkpt>
            <trkpt lat="43.344239000" lon="5.049948000">
                <ele>36.000000</ele>
                <time>2018-01-25T11:51:34Z</time>
            </trkpt>
            <trkpt lat="43.344139000" lon="5.049950000">
                <ele>36.000000</ele>
                <time>2018-01-25T11:51:44Z</time>
            </trkpt>
            <trkpt lat="43.344043000" lon="5.049983000">
                <ele>36.000000</ele>
                <time>2018-01-25T11:51:53Z</time>
            </trkpt>
            <trkpt lat="43.343997000" lon="5.049848000">
                <ele>34.000000</ele>
                <time>2018-01-25T11:52:29Z</time>
            </trkpt>
            <trkpt lat="43.343986000" lon="5.049705000">
                <ele>33.000000</ele>
                <time>2018-01-25T11:52:41Z</time>
            </trkpt>
            <trkpt lat="43.343975000" lon="5.049569000">
                <ele>31.000000</ele>
                <time>2018-01-25T11:52:53Z</time>
            </trkpt>
            <trkpt lat="43.343911000" lon="5.049494000">
                <ele>30.000000</ele>
                <time>2018-01-25T11:53:04Z</time>
            </trkpt>
            <trkpt lat="43.343926000" lon="5.049373000">
                <ele>29.000000</ele>
                <time>2018-01-25T11:53:16Z</time>
            </trkpt>
            <trkpt lat="43.343946000" lon="5.049229000">
                <ele>28.000000</ele>
                <time>2018-01-25T11:53:29Z</time>
            </trkpt>
            <trkpt lat="43.343947000" lon="5.049088000">
                <ele>28.000000</ele>
                <time>2018-01-25T11:53:41Z</time>
            </trkpt>
            <trkpt lat="43.343977000" lon="5.048956000">
                <ele>28.000000</ele>
                <time>2018-01-25T11:53:53Z</time>
            </trkpt>
            <trkpt lat="43.344019000" lon="5.048824000">
                <ele>28.000000</ele>
                <time>2018-01-25T11:54:05Z</time>
            </trkpt>
            <trkpt lat="43.344033000" lon="5.048687000">
                <ele>27.000000</ele>
                <time>2018-01-25T11:54:21Z</time>
            </trkpt>
            <trkpt lat="43.344039000" lon="5.048544000">
                <ele>27.000000</ele>
                <time>2018-01-25T11:54:31Z</time>
            </trkpt>
            <trkpt lat="43.344040000" lon="5.048404000">
                <ele>27.000000</ele>
                <time>2018-01-25T11:54:40Z</time>
            </trkpt>
            <trkpt lat="43.344014000" lon="5.048269000">
                <ele>27.000000</ele>
                <time>2018-01-25T11:54:51Z</time>
            </trkpt>
            <trkpt lat="43.343935000" lon="5.048177000">
                <ele>28.000000</ele>
                <time>2018-01-25T11:55:02Z</time>
            </trkpt>
            <trkpt lat="43.343845000" lon="5.048084000">
                <ele>28.000000</ele>
                <time>2018-01-25T11:55:13Z</time>
            </trkpt>
            <trkpt lat="43.343759000" lon="5.048009000">
                <ele>29.000000</ele>
                <time>2018-01-25T11:55:22Z</time>
            </trkpt>
            <trkpt lat="43.343671000" lon="5.048066000">
                <ele>28.000000</ele>
                <time>2018-01-25T11:55:32Z</time>
            </trkpt>
            <trkpt lat="43.343593000" lon="5.048165000">
                <ele>27.000000</ele>
                <time>2018-01-25T11:55:42Z</time>
            </trkpt>
            <trkpt lat="43.343521000" lon="5.048275000">
                <ele>25.000000</ele>
                <time>2018-01-25T11:55:52Z</time>
            </trkpt>
            <trkpt lat="43.343420000" lon="5.048350000">
                <ele>24.000000</ele>
                <time>2018-01-25T11:56:02Z</time>
            </trkpt>
            <trkpt lat="43.343306000" lon="5.048424000">
                <ele>24.000000</ele>
                <time>2018-01-25T11:56:12Z</time>
            </trkpt>
            <trkpt lat="43.343188000" lon="5.048482000">
                <ele>23.000000</ele>
                <time>2018-01-25T11:56:21Z</time>
            </trkpt>
            <trkpt lat="43.343099000" lon="5.048513000">
                <ele>22.000000</ele>
                <time>2018-01-25T11:56:29Z</time>
            </trkpt>
            <trkpt lat="43.342998000" lon="5.048521000">
                <ele>22.000000</ele>
                <time>2018-01-25T11:56:38Z</time>
            </trkpt>
            <trkpt lat="43.342906000" lon="5.048527000">
                <ele>21.000000</ele>
                <time>2018-01-25T11:56:46Z</time>
            </trkpt>
            <trkpt lat="43.342806000" lon="5.048486000">
                <ele>21.000000</ele>
                <time>2018-01-25T11:56:55Z</time>
            </trkpt>
            <trkpt lat="43.342709000" lon="5.048453000">
                <ele>21.000000</ele>
                <time>2018-01-25T11:57:04Z</time>
            </trkpt>
            <trkpt lat="43.342621000" lon="5.048422000">
                <ele>20.000000</ele>
                <time>2018-01-25T11:57:13Z</time>
            </trkpt>
            <trkpt lat="43.342517000" lon="5.048409000">
                <ele>20.000000</ele>
                <time>2018-01-25T11:57:23Z</time>
            </trkpt>
            <trkpt lat="43.342432000" lon="5.048414000">
                <ele>20.000000</ele>
                <time>2018-01-25T11:57:45Z</time>
            </trkpt>
            <trkpt lat="43.342331000" lon="5.048395000">
                <ele>19.000000</ele>
                <time>2018-01-25T11:57:56Z</time>
            </trkpt>
            <trkpt lat="43.342227000" lon="5.048399000">
                <ele>19.000000</ele>
                <time>2018-01-25T11:58:04Z</time>
            </trkpt>
            <trkpt lat="43.342116000" lon="5.048394000">
                <ele>19.000000</ele>
                <time>2018-01-25T11:58:13Z</time>
            </trkpt>
            <trkpt lat="43.342016000" lon="5.048384000">
                <ele>19.000000</ele>
                <time>2018-01-25T11:58:22Z</time>
            </trkpt>
            <trkpt lat="43.341924000" lon="5.048376000">
                <ele>18.000000</ele>
                <time>2018-01-25T11:58:30Z</time>
            </trkpt>
            <trkpt lat="43.341837000" lon="5.048360000">
                <ele>18.000000</ele>
                <time>2018-01-25T11:58:38Z</time>
            </trkpt>
            <trkpt lat="43.341735000" lon="5.048355000">
                <ele>18.000000</ele>
                <time>2018-01-25T11:58:46Z</time>
            </trkpt>
            <trkpt lat="43.341623000" lon="5.048341000">
                <ele>18.000000</ele>
                <time>2018-01-25T11:58:55Z</time>
            </trkpt>
            <trkpt lat="43.341514000" lon="5.048336000">
                <ele>18.000000</ele>
                <time>2018-01-25T11:59:04Z</time>
            </trkpt>
            <trkpt lat="43.341419000" lon="5.048348000">
                <ele>17.000000</ele>
                <time>2018-01-25T11:59:12Z</time>
            </trkpt>
            <trkpt lat="43.341325000" lon="5.048408000">
                <ele>17.000000</ele>
                <time>2018-01-25T11:59:21Z</time>
            </trkpt>
            <trkpt lat="43.341239000" lon="5.048501000">
                <ele>16.000000</ele>
                <time>2018-01-25T11:59:30Z</time>
            </trkpt>
            <trkpt lat="43.341153000" lon="5.048581000">
                <ele>16.000000</ele>
                <time>2018-01-25T11:59:38Z</time>
            </trkpt>
            <trkpt lat="43.341058000" lon="5.048659000">
                <ele>16.000000</ele>
                <time>2018-01-25T11:59:47Z</time>
            </trkpt>
            <trkpt lat="43.340972000" lon="5.048742000">
                <ele>15.000000</ele>
                <time>2018-01-25T11:59:55Z</time>
            </trkpt>
            <trkpt lat="43.340898000" lon="5.048818000">
                <ele>15.000000</ele>
                <time>2018-01-25T12:00:03Z</time>
            </trkpt>
            <trkpt lat="43.340828000" lon="5.048907000">
                <ele>15.000000</ele>
                <time>2018-01-25T12:00:12Z</time>
            </trkpt>
            <trkpt lat="43.340767000" lon="5.049020000">
                <ele>15.000000</ele>
                <time>2018-01-25T12:00:29Z</time>
            </trkpt>
            <trkpt lat="43.340726000" lon="5.049124000">
                <ele>15.000000</ele>
                <time>2018-01-25T12:00:53Z</time>
            </trkpt>
            <trkpt lat="43.340690000" lon="5.049260000">
                <ele>16.000000</ele>
                <time>2018-01-25T12:01:02Z</time>
            </trkpt>
            <trkpt lat="43.340660000" lon="5.049390000">
                <ele>16.000000</ele>
                <time>2018-01-25T12:01:12Z</time>
            </trkpt>
            <trkpt lat="43.340605000" lon="5.049488000">
                <ele>17.000000</ele>
                <time>2018-01-25T12:01:31Z</time>
            </trkpt>
            <trkpt lat="43.340549000" lon="5.049593000">
                <ele>18.000000</ele>
                <time>2018-01-25T12:01:40Z</time>
            </trkpt>
            <trkpt lat="43.340511000" lon="5.049719000">
                <ele>19.000000</ele>
                <time>2018-01-25T12:01:48Z</time>
            </trkpt>
            <trkpt lat="43.340479000" lon="5.049859000">
                <ele>19.000000</ele>
                <time>2018-01-25T12:01:57Z</time>
            </trkpt>
            <trkpt lat="43.340448000" lon="5.049981000">
                <ele>20.000000</ele>
                <time>2018-01-25T12:02:12Z</time>
            </trkpt>
            <trkpt lat="43.340423000" lon="5.050106000">
                <ele>20.000000</ele>
                <time>2018-01-25T12:02:21Z</time>
            </trkpt>
            <trkpt lat="43.340409000" lon="5.050250000">
                <ele>20.000000</ele>
                <time>2018-01-25T12:02:31Z</time>
            </trkpt>
            <trkpt lat="43.340375000" lon="5.050383000">
                <ele>21.000000</ele>
                <time>2018-01-25T12:02:40Z</time>
            </trkpt>
            <trkpt lat="43.340350000" lon="5.050517000">
                <ele>21.000000</ele>
                <time>2018-01-25T12:02:50Z</time>
            </trkpt>
            <trkpt lat="43.340335000" lon="5.050677000">
                <ele>21.000000</ele>
                <time>2018-01-25T12:03:00Z</time>
            </trkpt>
            <trkpt lat="43.340319000" lon="5.050808000">
                <ele>21.000000</ele>
                <time>2018-01-25T12:03:08Z</time>
            </trkpt>
            <trkpt lat="43.340284000" lon="5.050942000">
                <ele>22.000000</ele>
                <time>2018-01-25T12:03:16Z</time>
            </trkpt>
            <trkpt lat="43.340248000" lon="5.051077000">
                <ele>23.000000</ele>
                <time>2018-01-25T12:03:26Z</time>
            </trkpt>
            <trkpt lat="43.340255000" lon="5.051221000">
                <ele>23.000000</ele>
                <time>2018-01-25T12:03:34Z</time>
            </trkpt>
            <trkpt lat="43.340272000" lon="5.051369000">
                <ele>23.000000</ele>
                <time>2018-01-25T12:03:42Z</time>
            </trkpt>
            <trkpt lat="43.340255000" lon="5.051506000">
                <ele>24.000000</ele>
                <time>2018-01-25T12:03:52Z</time>
            </trkpt>
            <trkpt lat="43.340258000" lon="5.051664000">
                <ele>24.000000</ele>
                <time>2018-01-25T12:04:03Z</time>
            </trkpt>
            <trkpt lat="43.340257000" lon="5.051799000">
                <ele>25.000000</ele>
                <time>2018-01-25T12:04:11Z</time>
            </trkpt>
            <trkpt lat="43.340261000" lon="5.051941000">
                <ele>25.000000</ele>
                <time>2018-01-25T12:04:20Z</time>
            </trkpt>
            <trkpt lat="43.340263000" lon="5.052074000">
                <ele>25.000000</ele>
                <time>2018-01-25T12:04:30Z</time>
            </trkpt>
            <trkpt lat="43.340278000" lon="5.052208000">
                <ele>26.000000</ele>
                <time>2018-01-25T12:04:39Z</time>
            </trkpt>
            <trkpt lat="43.340290000" lon="5.052353000">
                <ele>26.000000</ele>
                <time>2018-01-25T12:04:47Z</time>
            </trkpt>
            <trkpt lat="43.340306000" lon="5.052502000">
                <ele>26.000000</ele>
                <time>2018-01-25T12:04:55Z</time>
            </trkpt>
            <trkpt lat="43.340357000" lon="5.052605000">
                <ele>26.000000</ele>
                <time>2018-01-25T12:05:06Z</time>
            </trkpt>
            <trkpt lat="43.340351000" lon="5.052749000">
                <ele>26.000000</ele>
                <time>2018-01-25T12:05:16Z</time>
            </trkpt>
            <trkpt lat="43.340302000" lon="5.052863000">
                <ele>28.000000</ele>
                <time>2018-01-25T12:05:24Z</time>
            </trkpt>
            <trkpt lat="43.340290000" lon="5.052995000">
                <ele>28.000000</ele>
                <time>2018-01-25T12:05:34Z</time>
            </trkpt>
            <trkpt lat="43.340283000" lon="5.053138000">
                <ele>29.000000</ele>
                <time>2018-01-25T12:05:43Z</time>
            </trkpt>
            <trkpt lat="43.340257000" lon="5.053266000">
                <ele>30.000000</ele>
                <time>2018-01-25T12:05:52Z</time>
            </trkpt>
            <trkpt lat="43.340244000" lon="5.053400000">
                <ele>31.000000</ele>
                <time>2018-01-25T12:06:00Z</time>
            </trkpt>
            <trkpt lat="43.340235000" lon="5.053528000">
                <ele>32.000000</ele>
                <time>2018-01-25T12:06:08Z</time>
            </trkpt>
            <trkpt lat="43.340217000" lon="5.053667000">
                <ele>32.000000</ele>
                <time>2018-01-25T12:06:17Z</time>
            </trkpt>
            <trkpt lat="43.340207000" lon="5.053805000">
                <ele>33.000000</ele>
                <time>2018-01-25T12:06:26Z</time>
            </trkpt>
            <trkpt lat="43.340205000" lon="5.053964000">
                <ele>34.000000</ele>
                <time>2018-01-25T12:06:35Z</time>
            </trkpt>
            <trkpt lat="43.340219000" lon="5.054101000">
                <ele>34.000000</ele>
                <time>2018-01-25T12:06:44Z</time>
            </trkpt>
            <trkpt lat="43.340246000" lon="5.054248000">
                <ele>34.000000</ele>
                <time>2018-01-25T12:06:53Z</time>
            </trkpt>
            <trkpt lat="43.340261000" lon="5.054377000">
                <ele>34.000000</ele>
                <time>2018-01-25T12:07:02Z</time>
            </trkpt>
            <trkpt lat="43.340272000" lon="5.054512000">
                <ele>34.000000</ele>
                <time>2018-01-25T12:07:12Z</time>
            </trkpt>
            <trkpt lat="43.340281000" lon="5.054645000">
                <ele>34.000000</ele>
                <time>2018-01-25T12:07:22Z</time>
            </trkpt>
            <trkpt lat="43.340281000" lon="5.054772000">
                <ele>35.000000</ele>
                <time>2018-01-25T12:07:33Z</time>
            </trkpt>
            <trkpt lat="43.340164000" lon="5.054777000">
                <ele>36.000000</ele>
                <time>2018-01-25T12:08:15Z</time>
            </trkpt>
            <trkpt lat="43.340072000" lon="5.054716000">
                <ele>38.000000</ele>
                <time>2018-01-25T12:08:24Z</time>
            </trkpt>
            <trkpt lat="43.340031000" lon="5.054595000">
                <ele>38.000000</ele>
                <time>2018-01-25T12:08:35Z</time>
            </trkpt>
            <trkpt lat="43.339973000" lon="5.054481000">
                <ele>39.000000</ele>
                <time>2018-01-25T12:08:48Z</time>
            </trkpt>
            <trkpt lat="43.339891000" lon="5.054429000">
                <ele>39.000000</ele>
                <time>2018-01-25T12:08:58Z</time>
            </trkpt>
            <trkpt lat="43.339807000" lon="5.054374000">
                <ele>39.000000</ele>
                <time>2018-01-25T12:09:08Z</time>
            </trkpt>
            <trkpt lat="43.339739000" lon="5.054294000">
                <ele>39.000000</ele>
                <time>2018-01-25T12:09:19Z</time>
            </trkpt>
            <trkpt lat="43.339666000" lon="5.054218000">
                <ele>40.000000</ele>
                <time>2018-01-25T12:09:30Z</time>
            </trkpt>
            <trkpt lat="43.339595000" lon="5.054133000">
                <ele>40.000000</ele>
                <time>2018-01-25T12:09:38Z</time>
            </trkpt>
            <trkpt lat="43.339511000" lon="5.054039000">
                <ele>40.000000</ele>
                <time>2018-01-25T12:09:46Z</time>
            </trkpt>
            <trkpt lat="43.339423000" lon="5.053954000">
                <ele>40.000000</ele>
                <time>2018-01-25T12:09:55Z</time>
            </trkpt>
            <trkpt lat="43.339342000" lon="5.053860000">
                <ele>40.000000</ele>
                <time>2018-01-25T12:10:05Z</time>
            </trkpt>
            <trkpt lat="43.339246000" lon="5.053763000">
                <ele>41.000000</ele>
                <time>2018-01-25T12:10:15Z</time>
            </trkpt>
            <trkpt lat="43.339155000" lon="5.053665000">
                <ele>41.000000</ele>
                <time>2018-01-25T12:10:25Z</time>
            </trkpt>
            <trkpt lat="43.339082000" lon="5.053566000">
                <ele>40.000000</ele>
                <time>2018-01-25T12:10:34Z</time>
            </trkpt>
            <trkpt lat="43.339002000" lon="5.053479000">
                <ele>40.000000</ele>
                <time>2018-01-25T12:10:43Z</time>
            </trkpt>
            <trkpt lat="43.338891000" lon="5.053362000">
                <ele>40.000000</ele>
                <time>2018-01-25T12:11:46Z</time>
            </trkpt>
            <trkpt lat="43.338801000" lon="5.053245000">
                <ele>39.000000</ele>
                <time>2018-01-25T12:12:00Z</time>
            </trkpt>
            <trkpt lat="43.338635000" lon="5.053133000">
                <ele>39.000000</ele>
                <time>2018-01-25T12:12:18Z</time>
            </trkpt>
            <trkpt lat="43.338541000" lon="5.052992000">
                <ele>39.000000</ele>
                <time>2018-01-25T12:12:31Z</time>
            </trkpt>
            <trkpt lat="43.338400000" lon="5.052885000">
                <ele>39.000000</ele>
                <time>2018-01-25T12:12:44Z</time>
            </trkpt>
            <trkpt lat="43.338224000" lon="5.052779000">
                <ele>38.000000</ele>
                <time>2018-01-25T12:14:29Z</time>
            </trkpt>
            <trkpt lat="43.338166000" lon="5.052673000">
                <ele>38.000000</ele>
                <time>2018-01-25T12:14:38Z</time>
            </trkpt>
            <trkpt lat="43.338094000" lon="5.052575000">
                <ele>37.000000</ele>
                <time>2018-01-25T12:14:50Z</time>
            </trkpt>
            <trkpt lat="43.338017000" lon="5.052490000">
                <ele>37.000000</ele>
                <time>2018-01-25T13:00:56Z</time>
            </trkpt>
            <trkpt lat="43.337925000" lon="5.052363000">
                <ele>37.000000</ele>
                <time>2018-01-25T13:01:32Z</time>
            </trkpt>
            <trkpt lat="43.337826000" lon="5.052353000">
                <ele>37.000000</ele>
                <time>2018-01-25T13:01:43Z</time>
            </trkpt>
            <trkpt lat="43.337731000" lon="5.052383000">
                <ele>37.000000</ele>
                <time>2018-01-25T13:01:55Z</time>
            </trkpt>
            <trkpt lat="43.337615000" lon="5.052416000">
                <ele>36.000000</ele>
                <time>2018-01-25T13:02:09Z</time>
            </trkpt>
            <trkpt lat="43.337497000" lon="5.052452000">
                <ele>36.000000</ele>
                <time>2018-01-25T13:02:20Z</time>
            </trkpt>
            <trkpt lat="43.337372000" lon="5.052450000">
                <ele>36.000000</ele>
                <time>2018-01-25T13:02:32Z</time>
            </trkpt>
            <trkpt lat="43.337264000" lon="5.052402000">
                <ele>35.000000</ele>
                <time>2018-01-25T13:02:42Z</time>
            </trkpt>
            <trkpt lat="43.337161000" lon="5.052346000">
                <ele>35.000000</ele>
                <time>2018-01-25T13:02:52Z</time>
            </trkpt>
            <trkpt lat="43.337056000" lon="5.052306000">
                <ele>35.000000</ele>
                <time>2018-01-25T13:03:01Z</time>
            </trkpt>
            <trkpt lat="43.336948000" lon="5.052280000">
                <ele>34.000000</ele>
                <time>2018-01-25T13:03:12Z</time>
            </trkpt>
            <trkpt lat="43.336837000" lon="5.052251000">
                <ele>34.000000</ele>
                <time>2018-01-25T13:03:23Z</time>
            </trkpt>
            <trkpt lat="43.336734000" lon="5.052224000">
                <ele>34.000000</ele>
                <time>2018-01-25T13:03:32Z</time>
            </trkpt>
            <trkpt lat="43.336626000" lon="5.052152000">
                <ele>34.000000</ele>
                <time>2018-01-25T13:03:41Z</time>
            </trkpt>
            <trkpt lat="43.336501000" lon="5.052111000">
                <ele>33.000000</ele>
                <time>2018-01-25T13:03:54Z</time>
            </trkpt>
            <trkpt lat="43.336399000" lon="5.052049000">
                <ele>33.000000</ele>
                <time>2018-01-25T13:04:06Z</time>
            </trkpt>
            <trkpt lat="43.336294000" lon="5.052005000">
                <ele>33.000000</ele>
                <time>2018-01-25T13:04:16Z</time>
            </trkpt>
            <trkpt lat="43.336164000" lon="5.051951000">
                <ele>33.000000</ele>
                <time>2018-01-25T13:04:27Z</time>
            </trkpt>
            <trkpt lat="43.336045000" lon="5.051931000">
                <ele>33.000000</ele>
                <time>2018-01-25T13:04:36Z</time>
            </trkpt>
            <trkpt lat="43.335925000" lon="5.051929000">
                <ele>33.000000</ele>
                <time>2018-01-25T13:04:45Z</time>
            </trkpt>
            <trkpt lat="43.335806000" lon="5.051963000">
                <ele>32.000000</ele>
                <time>2018-01-25T13:04:55Z</time>
            </trkpt>
            <trkpt lat="43.335658000" lon="5.051994000">
                <ele>32.000000</ele>
                <time>2018-01-25T13:05:04Z</time>
            </trkpt>
            <trkpt lat="43.335542000" lon="5.052035000">
                <ele>31.000000</ele>
                <time>2018-01-25T13:05:12Z</time>
            </trkpt>
            <trkpt lat="43.335426000" lon="5.052074000">
                <ele>31.000000</ele>
                <time>2018-01-25T13:05:20Z</time>
            </trkpt>
            <trkpt lat="43.335370000" lon="5.052144000">
                <ele>31.000000</ele>
                <time>2018-01-25T13:05:37Z</time>
            </trkpt>
            <trkpt lat="43.335453000" lon="5.052203000">
                <ele>31.000000</ele>
                <time>2018-01-25T13:05:47Z</time>
            </trkpt>
            <trkpt lat="43.335537000" lon="5.052290000">
                <ele>31.000000</ele>
                <time>2018-01-25T13:05:56Z</time>
            </trkpt>
            <trkpt lat="43.335603000" lon="5.052420000">
                <ele>31.000000</ele>
                <time>2018-01-25T13:06:06Z</time>
            </trkpt>
            <trkpt lat="43.335629000" lon="5.052553000">
                <ele>31.000000</ele>
                <time>2018-01-25T13:06:15Z</time>
            </trkpt>
            <trkpt lat="43.335631000" lon="5.052705000">
                <ele>30.000000</ele>
                <time>2018-01-25T13:06:25Z</time>
            </trkpt>
            <trkpt lat="43.335653000" lon="5.052853000">
                <ele>29.000000</ele>
                <time>2018-01-25T13:06:35Z</time>
            </trkpt>
            <trkpt lat="43.335666000" lon="5.053024000">
                <ele>29.000000</ele>
                <time>2018-01-25T13:06:45Z</time>
            </trkpt>
            <trkpt lat="43.335683000" lon="5.053174000">
                <ele>28.000000</ele>
                <time>2018-01-25T13:06:55Z</time>
            </trkpt>
            <trkpt lat="43.335707000" lon="5.053329000">
                <ele>27.000000</ele>
                <time>2018-01-25T13:07:05Z</time>
            </trkpt>
            <trkpt lat="43.335713000" lon="5.053484000">
                <ele>28.000000</ele>
                <time>2018-01-25T13:07:15Z</time>
            </trkpt>
            <trkpt lat="43.335677000" lon="5.053612000">
                <ele>28.000000</ele>
                <time>2018-01-25T13:07:23Z</time>
            </trkpt>
            <trkpt lat="43.335647000" lon="5.053737000">
                <ele>28.000000</ele>
                <time>2018-01-25T13:07:32Z</time>
            </trkpt>
            <trkpt lat="43.335704000" lon="5.053859000">
                <ele>29.000000</ele>
                <time>2018-01-25T13:07:50Z</time>
            </trkpt>
            <trkpt lat="43.335754000" lon="5.053992000">
                <ele>30.000000</ele>
                <time>2018-01-25T13:08:02Z</time>
            </trkpt>
            <trkpt lat="43.335820000" lon="5.054124000">
                <ele>31.000000</ele>
                <time>2018-01-25T13:08:12Z</time>
            </trkpt>
            <trkpt lat="43.335869000" lon="5.054282000">
                <ele>32.000000</ele>
                <time>2018-01-25T13:08:25Z</time>
            </trkpt>
            <trkpt lat="43.335905000" lon="5.054426000">
                <ele>33.000000</ele>
                <time>2018-01-25T13:08:37Z</time>
            </trkpt>
            <trkpt lat="43.335968000" lon="5.054621000">
                <ele>35.000000</ele>
                <time>2018-01-25T13:09:00Z</time>
            </trkpt>
            <trkpt lat="43.335933000" lon="5.054785000">
                <ele>36.000000</ele>
                <time>2018-01-25T13:09:28Z</time>
            </trkpt>
            <trkpt lat="43.336012000" lon="5.054876000">
                <ele>37.000000</ele>
                <time>2018-01-25T13:09:40Z</time>
            </trkpt>
            <trkpt lat="43.336097000" lon="5.054981000">
                <ele>39.000000</ele>
                <time>2018-01-25T13:09:51Z</time>
            </trkpt>
            <trkpt lat="43.336103000" lon="5.055124000">
                <ele>39.000000</ele>
                <time>2018-01-25T13:10:03Z</time>
            </trkpt>
            <trkpt lat="43.336108000" lon="5.055270000">
                <ele>40.000000</ele>
                <time>2018-01-25T13:10:15Z</time>
            </trkpt>
            <trkpt lat="43.336119000" lon="5.055514000">
                <ele>41.000000</ele>
                <time>2018-01-25T13:10:31Z</time>
            </trkpt>
            <trkpt lat="43.336108000" lon="5.055652000">
                <ele>42.000000</ele>
                <time>2018-01-25T13:10:55Z</time>
            </trkpt>
            <trkpt lat="43.336100000" lon="5.055801000">
                <ele>42.000000</ele>
                <time>2018-01-25T13:11:07Z</time>
            </trkpt>
            <trkpt lat="43.336056000" lon="5.055914000">
                <ele>42.000000</ele>
                <time>2018-01-25T13:11:19Z</time>
            </trkpt>
            <trkpt lat="43.335982000" lon="5.056011000">
                <ele>42.000000</ele>
                <time>2018-01-25T13:11:29Z</time>
            </trkpt>
            <trkpt lat="43.335945000" lon="5.056145000">
                <ele>43.000000</ele>
                <time>2018-01-25T13:11:39Z</time>
            </trkpt>
            <trkpt lat="43.335880000" lon="5.056256000">
                <ele>43.000000</ele>
                <time>2018-01-25T13:11:50Z</time>
            </trkpt>
            <trkpt lat="43.335822000" lon="5.056385000">
                <ele>44.000000</ele>
                <time>2018-01-25T13:13:22Z</time>
            </trkpt>
            <trkpt lat="43.335722000" lon="5.056418000">
                <ele>43.000000</ele>
                <time>2018-01-25T13:13:34Z</time>
            </trkpt>
            <trkpt lat="43.335611000" lon="5.056443000">
                <ele>43.000000</ele>
                <time>2018-01-25T13:13:45Z</time>
            </trkpt>
            <trkpt lat="43.335503000" lon="5.056420000">
                <ele>43.000000</ele>
                <time>2018-01-25T13:13:55Z</time>
            </trkpt>
            <trkpt lat="43.335392000" lon="5.056401000">
                <ele>42.000000</ele>
                <time>2018-01-25T13:14:07Z</time>
            </trkpt>
            <trkpt lat="43.335281000" lon="5.056351000">
                <ele>42.000000</ele>
                <time>2018-01-25T13:14:20Z</time>
            </trkpt>
            <trkpt lat="43.335170000" lon="5.056290000">
                <ele>41.000000</ele>
                <time>2018-01-25T13:14:33Z</time>
            </trkpt>
            <trkpt lat="43.335054000" lon="5.056269000">
                <ele>41.000000</ele>
                <time>2018-01-25T13:14:44Z</time>
            </trkpt>
            <trkpt lat="43.334937000" lon="5.056244000">
                <ele>40.000000</ele>
                <time>2018-01-25T13:14:56Z</time>
            </trkpt>
            <trkpt lat="43.334825000" lon="5.056200000">
                <ele>40.000000</ele>
                <time>2018-01-25T13:15:08Z</time>
            </trkpt>
            <trkpt lat="43.334665000" lon="5.056179000">
                <ele>39.000000</ele>
                <time>2018-01-25T13:15:26Z</time>
            </trkpt>
            <trkpt lat="43.334494000" lon="5.056214000">
                <ele>39.000000</ele>
                <time>2018-01-25T13:15:41Z</time>
            </trkpt>
            <trkpt lat="43.334370000" lon="5.056320000">
                <ele>39.000000</ele>
                <time>2018-01-25T13:15:51Z</time>
            </trkpt>
            <trkpt lat="43.334267000" lon="5.056419000">
                <ele>39.000000</ele>
                <time>2018-01-25T13:16:00Z</time>
            </trkpt>
            <trkpt lat="43.334163000" lon="5.056486000">
                <ele>39.000000</ele>
                <time>2018-01-25T13:16:08Z</time>
            </trkpt>
            <trkpt lat="43.334061000" lon="5.056473000">
                <ele>38.000000</ele>
                <time>2018-01-25T13:16:17Z</time>
            </trkpt>
            <trkpt lat="43.333965000" lon="5.056549000">
                <ele>38.000000</ele>
                <time>2018-01-25T13:16:26Z</time>
            </trkpt>
            <trkpt lat="43.333866000" lon="5.056624000">
                <ele>37.000000</ele>
                <time>2018-01-25T13:16:36Z</time>
            </trkpt>
            <trkpt lat="43.333763000" lon="5.056700000">
                <ele>37.000000</ele>
                <time>2018-01-25T13:16:58Z</time>
            </trkpt>
            <trkpt lat="43.333731000" lon="5.056853000">
                <ele>37.000000</ele>
                <time>2018-01-25T13:17:35Z</time>
            </trkpt>
            <trkpt lat="43.333683000" lon="5.056978000">
                <ele>37.000000</ele>
                <time>2018-01-25T13:17:46Z</time>
            </trkpt>
            <trkpt lat="43.333606000" lon="5.057078000">
                <ele>36.000000</ele>
                <time>2018-01-25T13:17:58Z</time>
            </trkpt>
            <trkpt lat="43.333624000" lon="5.057294000">
                <ele>37.000000</ele>
                <time>2018-01-25T13:18:33Z</time>
            </trkpt>
            <trkpt lat="43.333620000" lon="5.057520000">
                <ele>37.000000</ele>
                <time>2018-01-25T13:19:04Z</time>
            </trkpt>
            <trkpt lat="43.333574000" lon="5.057689000">
                <ele>36.000000</ele>
                <time>2018-01-25T13:19:16Z</time>
            </trkpt>
            <trkpt lat="43.333497000" lon="5.057867000">
                <ele>34.000000</ele>
                <time>2018-01-25T13:19:29Z</time>
            </trkpt>
            <trkpt lat="43.333419000" lon="5.057974000">
                <ele>33.000000</ele>
                <time>2018-01-25T13:19:38Z</time>
            </trkpt>
            <trkpt lat="43.333329000" lon="5.058035000">
                <ele>32.000000</ele>
                <time>2018-01-25T13:19:49Z</time>
            </trkpt>
            <trkpt lat="43.333229000" lon="5.058107000">
                <ele>32.000000</ele>
                <time>2018-01-25T13:19:58Z</time>
            </trkpt>
            <trkpt lat="43.333139000" lon="5.058199000">
                <ele>31.000000</ele>
                <time>2018-01-25T13:20:08Z</time>
            </trkpt>
            <trkpt lat="43.333069000" lon="5.058314000">
                <ele>30.000000</ele>
                <time>2018-01-25T13:20:17Z</time>
            </trkpt>
            <trkpt lat="43.333066000" lon="5.058466000">
                <ele>29.000000</ele>
                <time>2018-01-25T13:20:27Z</time>
            </trkpt>
            <trkpt lat="43.333122000" lon="5.058624000">
                <ele>29.000000</ele>
                <time>2018-01-25T13:20:36Z</time>
            </trkpt>
            <trkpt lat="43.333184000" lon="5.058780000">
                <ele>28.000000</ele>
                <time>2018-01-25T13:20:46Z</time>
            </trkpt>
            <trkpt lat="43.333211000" lon="5.058925000">
                <ele>28.000000</ele>
                <time>2018-01-25T13:20:55Z</time>
            </trkpt>
            <trkpt lat="43.333255000" lon="5.059059000">
                <ele>27.000000</ele>
                <time>2018-01-25T13:21:05Z</time>
            </trkpt>
            <trkpt lat="43.333302000" lon="5.059190000">
                <ele>27.000000</ele>
                <time>2018-01-25T13:21:15Z</time>
            </trkpt>
            <trkpt lat="43.333267000" lon="5.059322000">
                <ele>26.000000</ele>
                <time>2018-01-25T13:21:28Z</time>
            </trkpt>
            <trkpt lat="43.333209000" lon="5.059444000">
                <ele>25.000000</ele>
                <time>2018-01-25T13:21:40Z</time>
            </trkpt>
            <trkpt lat="43.333091000" lon="5.059506000">
                <ele>24.000000</ele>
                <time>2018-01-25T13:22:24Z</time>
            </trkpt>
            <trkpt lat="43.332919000" lon="5.059546000">
                <ele>23.000000</ele>
                <time>2018-01-25T13:23:09Z</time>
            </trkpt>
            <trkpt lat="43.332826000" lon="5.059642000">
                <ele>21.000000</ele>
                <time>2018-01-25T13:23:21Z</time>
            </trkpt>
            <trkpt lat="43.332703000" lon="5.059606000">
                <ele>21.000000</ele>
                <time>2018-01-25T13:23:32Z</time>
            </trkpt>
            <trkpt lat="43.332570000" lon="5.059537000">
                <ele>21.000000</ele>
                <time>2018-01-25T13:23:46Z</time>
            </trkpt>
            <trkpt lat="43.332412000" lon="5.059483000">
                <ele>20.000000</ele>
                <time>2018-01-25T13:24:01Z</time>
            </trkpt>
            <trkpt lat="43.332206000" lon="5.059357000">
                <ele>20.000000</ele>
                <time>2018-01-25T13:24:24Z</time>
            </trkpt>
            <trkpt lat="43.332070000" lon="5.059302000">
                <ele>20.000000</ele>
                <time>2018-01-25T13:24:35Z</time>
            </trkpt>
            <trkpt lat="43.331896000" lon="5.059435000">
                <ele>18.000000</ele>
                <time>2018-01-25T13:25:27Z</time>
            </trkpt>
            <trkpt lat="43.331858000" lon="5.059562000">
                <ele>17.000000</ele>
                <time>2018-01-25T13:25:37Z</time>
            </trkpt>
            <trkpt lat="43.331811000" lon="5.059675000">
                <ele>16.000000</ele>
                <time>2018-01-25T13:25:56Z</time>
            </trkpt>
            <trkpt lat="43.331708000" lon="5.059686000">
                <ele>15.000000</ele>
                <time>2018-01-25T13:26:06Z</time>
            </trkpt>
            <trkpt lat="43.331621000" lon="5.059711000">
                <ele>14.000000</ele>
                <time>2018-01-25T13:26:41Z</time>
            </trkpt>
            <trkpt lat="43.331480000" lon="5.059684000">
                <ele>14.000000</ele>
                <time>2018-01-25T13:26:49Z</time>
            </trkpt>
            <trkpt lat="43.331356000" lon="5.059684000">
                <ele>13.000000</ele>
                <time>2018-01-25T13:26:57Z</time>
            </trkpt>
            <trkpt lat="43.331184000" lon="5.059721000">
                <ele>12.000000</ele>
                <time>2018-01-25T13:27:06Z</time>
            </trkpt>
            <trkpt lat="43.331016000" lon="5.059775000">
                <ele>11.000000</ele>
                <time>2018-01-25T13:27:15Z</time>
            </trkpt>
            <trkpt lat="43.330907000" lon="5.059845000">
                <ele>10.000000</ele>
                <time>2018-01-25T13:27:24Z</time>
            </trkpt>
            <trkpt lat="43.330808000" lon="5.059854000">
                <ele>9.000000</ele>
                <time>2018-01-25T13:27:50Z</time>
            </trkpt>
            <trkpt lat="43.330727000" lon="5.059866000">
                <ele>9.000000</ele>
                <time>2018-01-25T13:28:37Z</time>
            </trkpt>
            <trkpt lat="43.330639000" lon="5.059953000">
                <ele>8.000000</ele>
                <time>2018-01-25T13:28:49Z</time>
            </trkpt>
            <trkpt lat="43.330555000" lon="5.059995000">
                <ele>8.000000</ele>
                <time>2018-01-25T13:29:00Z</time>
            </trkpt>
            <trkpt lat="43.330472000" lon="5.060059000">
                <ele>7.000000</ele>
                <time>2018-01-25T13:29:11Z</time>
            </trkpt>
            <trkpt lat="43.330391000" lon="5.060135000">
                <ele>7.000000</ele>
                <time>2018-01-25T13:29:24Z</time>
            </trkpt>
            <trkpt lat="43.330291000" lon="5.060180000">
                <ele>6.000000</ele>
                <time>2018-01-25T13:29:38Z</time>
            </trkpt>
            <trkpt lat="43.330194000" lon="5.060233000">
                <ele>6.000000</ele>
                <time>2018-01-25T13:29:48Z</time>
            </trkpt>
            <trkpt lat="43.330099000" lon="5.060253000">
                <ele>6.000000</ele>
                <time>2018-01-25T13:29:58Z</time>
            </trkpt>
            <trkpt lat="43.330006000" lon="5.060269000">
                <ele>6.000000</ele>
                <time>2018-01-25T13:30:07Z</time>
            </trkpt>
            <trkpt lat="43.329917000" lon="5.060259000">
                <ele>5.000000</ele>
                <time>2018-01-25T13:30:16Z</time>
            </trkpt>
            <trkpt lat="43.329829000" lon="5.060281000">
                <ele>5.000000</ele>
                <time>2018-01-25T13:30:24Z</time>
            </trkpt>
            <trkpt lat="43.329731000" lon="5.060297000">
                <ele>5.000000</ele>
                <time>2018-01-25T13:30:33Z</time>
            </trkpt>
            <trkpt lat="43.329636000" lon="5.060327000">
                <ele>4.000000</ele>
                <time>2018-01-25T13:30:42Z</time>
            </trkpt>
            <trkpt lat="43.329542000" lon="5.060361000">
                <ele>4.000000</ele>
                <time>2018-01-25T13:30:51Z</time>
            </trkpt>
            <trkpt lat="43.329447000" lon="5.060399000">
                <ele>3.000000</ele>
                <time>2018-01-25T13:31:01Z</time>
            </trkpt>
            <trkpt lat="43.329355000" lon="5.060414000">
                <ele>3.000000</ele>
                <time>2018-01-25T13:31:11Z</time>
            </trkpt>
            <trkpt lat="43.329260000" lon="5.060435000">
                <ele>3.000000</ele>
                <time>2018-01-25T13:31:20Z</time>
            </trkpt>
            <trkpt lat="43.329164000" lon="5.060435000">
                <ele>2.000000</ele>
                <time>2018-01-25T13:31:29Z</time>
            </trkpt>
            <trkpt lat="43.329065000" lon="5.060479000">
                <ele>2.000000</ele>
                <time>2018-01-25T13:31:39Z</time>
            </trkpt>
            <trkpt lat="43.329004000" lon="5.060566000">
                <ele>2.000000</ele>
                <time>2018-01-25T13:31:51Z</time>
            </trkpt>
            <trkpt lat="43.328981000" lon="5.060522000">
                <ele>2.000000</ele>
                <time>2018-01-25T13:32:55Z</time>
            </trkpt>
            <trkpt lat="43.329067000" lon="5.060466000">
                <ele>2.000000</ele>
                <time>2018-01-25T13:33:08Z</time>
            </trkpt>
            <trkpt lat="43.329130000" lon="5.060412000">
                <ele>2.000000</ele>
                <time>2018-01-25T13:33:36Z</time>
            </trkpt>
            <trkpt lat="43.329202000" lon="5.060340000">
                <ele>3.000000</ele>
                <time>2018-01-25T13:33:48Z</time>
            </trkpt>
            <trkpt lat="43.329247000" lon="5.060222000">
                <ele>3.000000</ele>
                <time>2018-01-25T13:33:58Z</time>
            </trkpt>
            <trkpt lat="43.329203000" lon="5.060073000">
                <ele>4.000000</ele>
                <time>2018-01-25T13:34:10Z</time>
            </trkpt>
            <trkpt lat="43.329092000" lon="5.060045000">
                <ele>4.000000</ele>
                <time>2018-01-25T13:34:43Z</time>
            </trkpt>
            <trkpt lat="43.329009000" lon="5.060109000">
                <ele>4.000000</ele>
                <time>2018-01-25T13:34:55Z</time>
            </trkpt>
            <trkpt lat="43.328923000" lon="5.060158000">
                <ele>3.000000</ele>
                <time>2018-01-25T13:35:06Z</time>
            </trkpt>
            <trkpt lat="43.328832000" lon="5.060166000">
                <ele>3.000000</ele>
                <time>2018-01-25T13:35:17Z</time>
            </trkpt>
            <trkpt lat="43.328737000" lon="5.060164000">
                <ele>3.000000</ele>
                <time>2018-01-25T13:35:27Z</time>
            </trkpt>
            <trkpt lat="43.328681000" lon="5.060166000">
                <ele>3.000000</ele>
                <time>2018-01-25T13:35:47Z</time>
            </trkpt>
            <trkpt lat="43.328588000" lon="5.060146000">
                <ele>3.000000</ele>
                <time>2018-01-25T13:36:14Z</time>
            </trkpt>
            <trkpt lat="43.328500000" lon="5.060121000">
                <ele>3.000000</ele>
                <time>2018-01-25T13:36:25Z</time>
            </trkpt>
            <trkpt lat="43.328417000" lon="5.060121000">
                <ele>3.000000</ele>
                <time>2018-01-25T13:36:46Z</time>
            </trkpt>
            <trkpt lat="43.328325000" lon="5.060084000">
                <ele>4.000000</ele>
                <time>2018-01-25T13:36:54Z</time>
            </trkpt>
            <trkpt lat="43.328219000" lon="5.060096000">
                <ele>3.000000</ele>
                <time>2018-01-25T13:37:05Z</time>
            </trkpt>
            <trkpt lat="43.328156000" lon="5.060024000">
                <ele>3.000000</ele>
                <time>2018-01-25T13:37:20Z</time>
            </trkpt>
            <trkpt lat="43.328062000" lon="5.059934000">
                <ele>3.000000</ele>
                <time>2018-01-25T13:38:04Z</time>
            </trkpt>
            <trkpt lat="43.328038000" lon="5.059798000">
                <ele>3.000000</ele>
                <time>2018-01-25T13:38:20Z</time>
            </trkpt>
            <trkpt lat="43.328060000" lon="5.059646000">
                <ele>3.000000</ele>
                <time>2018-01-25T13:40:11Z</time>
            </trkpt>
            <trkpt lat="43.328127000" lon="5.059571000">
                <ele>3.000000</ele>
                <time>2018-01-25T13:40:26Z</time>
            </trkpt>
            <trkpt lat="43.328217000" lon="5.059509000">
                <ele>3.000000</ele>
                <time>2018-01-25T13:40:36Z</time>
            </trkpt>
            <trkpt lat="43.328264000" lon="5.059380000">
                <ele>3.000000</ele>
                <time>2018-01-25T13:40:45Z</time>
            </trkpt>
            <trkpt lat="43.328295000" lon="5.059252000">
                <ele>3.000000</ele>
                <time>2018-01-25T13:40:54Z</time>
            </trkpt>
            <trkpt lat="43.328320000" lon="5.059116000">
                <ele>3.000000</ele>
                <time>2018-01-25T13:41:03Z</time>
            </trkpt>
            <trkpt lat="43.328328000" lon="5.058981000">
                <ele>4.000000</ele>
                <time>2018-01-25T13:41:12Z</time>
            </trkpt>
            <trkpt lat="43.328300000" lon="5.058829000">
                <ele>4.000000</ele>
                <time>2018-01-25T13:41:22Z</time>
            </trkpt>
            <trkpt lat="43.328271000" lon="5.058686000">
                <ele>5.000000</ele>
                <time>2018-01-25T13:41:31Z</time>
            </trkpt>
            <trkpt lat="43.328212000" lon="5.058542000">
                <ele>5.000000</ele>
                <time>2018-01-25T13:41:41Z</time>
            </trkpt>
            <trkpt lat="43.328136000" lon="5.058456000">
                <ele>5.000000</ele>
                <time>2018-01-25T13:41:54Z</time>
            </trkpt>
            <trkpt lat="43.328068000" lon="5.058361000">
                <ele>5.000000</ele>
                <time>2018-01-25T13:42:03Z</time>
            </trkpt>
            <trkpt lat="43.327980000" lon="5.058270000">
                <ele>5.000000</ele>
                <time>2018-01-25T13:42:13Z</time>
            </trkpt>
            <trkpt lat="43.327935000" lon="5.058150000">
                <ele>5.000000</ele>
                <time>2018-01-25T13:42:23Z</time>
            </trkpt>
            <trkpt lat="43.327906000" lon="5.058010000">
                <ele>5.000000</ele>
                <time>2018-01-25T13:42:36Z</time>
            </trkpt>
            <trkpt lat="43.327907000" lon="5.057857000">
                <ele>6.000000</ele>
                <time>2018-01-25T13:42:47Z</time>
            </trkpt>
            <trkpt lat="43.327912000" lon="5.057682000">
                <ele>6.000000</ele>
                <time>2018-01-25T13:42:57Z</time>
            </trkpt>
            <trkpt lat="43.327905000" lon="5.057533000">
                <ele>6.000000</ele>
                <time>2018-01-25T13:43:08Z</time>
            </trkpt>
            <trkpt lat="43.327941000" lon="5.057399000">
                <ele>6.000000</ele>
                <time>2018-01-25T13:43:30Z</time>
            </trkpt>
            <trkpt lat="43.327987000" lon="5.057282000">
                <ele>6.000000</ele>
                <time>2018-01-25T13:43:42Z</time>
            </trkpt>
            <trkpt lat="43.328032000" lon="5.057164000">
                <ele>7.000000</ele>
                <time>2018-01-25T13:43:51Z</time>
            </trkpt>
            <trkpt lat="43.328111000" lon="5.057043000">
                <ele>7.000000</ele>
                <time>2018-01-25T13:44:06Z</time>
            </trkpt>
            <trkpt lat="43.328079000" lon="5.056913000">
                <ele>6.000000</ele>
                <time>2018-01-25T13:44:27Z</time>
            </trkpt>
            <trkpt lat="43.328110000" lon="5.056729000">
                <ele>6.000000</ele>
                <time>2018-01-25T13:45:29Z</time>
            </trkpt>
            <trkpt lat="43.328188000" lon="5.056625000">
                <ele>7.000000</ele>
                <time>2018-01-25T13:45:40Z</time>
            </trkpt>
            <trkpt lat="43.328256000" lon="5.056491000">
                <ele>7.000000</ele>
                <time>2018-01-25T13:45:53Z</time>
            </trkpt>
            <trkpt lat="43.328289000" lon="5.056325000">
                <ele>7.000000</ele>
                <time>2018-01-25T13:46:05Z</time>
            </trkpt>
            <trkpt lat="43.328320000" lon="5.056170000">
                <ele>7.000000</ele>
                <time>2018-01-25T13:46:15Z</time>
            </trkpt>
            <trkpt lat="43.328368000" lon="5.056048000">
                <ele>7.000000</ele>
                <time>2018-01-25T13:46:24Z</time>
            </trkpt>
            <trkpt lat="43.328416000" lon="5.055905000">
                <ele>7.000000</ele>
                <time>2018-01-25T13:46:35Z</time>
            </trkpt>
            <trkpt lat="43.328465000" lon="5.055765000">
                <ele>7.000000</ele>
                <time>2018-01-25T13:46:49Z</time>
            </trkpt>
            <trkpt lat="43.328517000" lon="5.055625000">
                <ele>7.000000</ele>
                <time>2018-01-25T13:47:09Z</time>
            </trkpt>
            <trkpt lat="43.328580000" lon="5.055528000">
                <ele>7.000000</ele>
                <time>2018-01-25T13:47:22Z</time>
            </trkpt>
            <trkpt lat="43.328626000" lon="5.055394000">
                <ele>7.000000</ele>
                <time>2018-01-25T13:47:37Z</time>
            </trkpt>
            <trkpt lat="43.328574000" lon="5.055209000">
                <ele>6.000000</ele>
                <time>2018-01-25T13:47:48Z</time>
            </trkpt>
            <trkpt lat="43.328533000" lon="5.055079000">
                <ele>5.000000</ele>
                <time>2018-01-25T13:47:59Z</time>
            </trkpt>
            <trkpt lat="43.328499000" lon="5.054941000">
                <ele>5.000000</ele>
                <time>2018-01-25T13:48:10Z</time>
            </trkpt>
            <trkpt lat="43.328457000" lon="5.054794000">
                <ele>5.000000</ele>
                <time>2018-01-25T13:48:22Z</time>
            </trkpt>
            <trkpt lat="43.328398000" lon="5.054637000">
                <ele>5.000000</ele>
                <time>2018-01-25T13:48:38Z</time>
            </trkpt>
            <trkpt lat="43.328352000" lon="5.054515000">
                <ele>5.000000</ele>
                <time>2018-01-25T13:48:49Z</time>
            </trkpt>
            <trkpt lat="43.328294000" lon="5.054406000">
                <ele>6.000000</ele>
                <time>2018-01-25T13:48:58Z</time>
            </trkpt>
            <trkpt lat="43.328219000" lon="5.054326000">
                <ele>6.000000</ele>
                <time>2018-01-25T13:49:06Z</time>
            </trkpt>
            <trkpt lat="43.328102000" lon="5.054355000">
                <ele>6.000000</ele>
                <time>2018-01-25T13:49:19Z</time>
            </trkpt>
            <trkpt lat="43.327996000" lon="5.054348000">
                <ele>5.000000</ele>
                <time>2018-01-25T13:49:37Z</time>
            </trkpt>
            <trkpt lat="43.327890000" lon="5.054428000">
                <ele>5.000000</ele>
                <time>2018-01-25T13:49:49Z</time>
            </trkpt>
            <trkpt lat="43.327786000" lon="5.054525000">
                <ele>5.000000</ele>
                <time>2018-01-25T13:50:07Z</time>
            </trkpt>
            <trkpt lat="43.327670000" lon="5.054635000">
                <ele>4.000000</ele>
                <time>2018-01-25T13:50:33Z</time>
            </trkpt>
            <trkpt lat="43.327530000" lon="5.054799000">
                <ele>3.000000</ele>
                <time>2018-01-25T13:50:56Z</time>
            </trkpt>
            <trkpt lat="43.327471000" lon="5.054927000">
                <ele>3.000000</ele>
                <time>2018-01-25T13:51:08Z</time>
            </trkpt>
            <trkpt lat="43.327405000" lon="5.055049000">
                <ele>3.000000</ele>
                <time>2018-01-25T13:51:18Z</time>
            </trkpt>
            <trkpt lat="43.327325000" lon="5.055125000">
                <ele>3.000000</ele>
                <time>2018-01-25T13:51:27Z</time>
            </trkpt>
            <trkpt lat="43.327231000" lon="5.055139000">
                <ele>3.000000</ele>
                <time>2018-01-25T13:51:46Z</time>
            </trkpt>
            <trkpt lat="43.327137000" lon="5.055175000">
                <ele>2.000000</ele>
                <time>2018-01-25T13:52:04Z</time>
            </trkpt>
            <trkpt lat="43.327040000" lon="5.055238000">
                <ele>2.000000</ele>
                <time>2018-01-25T13:52:14Z</time>
            </trkpt>
            <trkpt lat="43.326946000" lon="5.055269000">
                <ele>2.000000</ele>
                <time>2018-01-25T13:52:24Z</time>
            </trkpt>
            <trkpt lat="43.326971000" lon="5.055350000">
                <ele>2.000000</ele>
                <time>2018-01-25T13:53:39Z</time>
            </trkpt>
            <trkpt lat="43.326879000" lon="5.055376000">
                <ele>2.000000</ele>
                <time>2018-01-25T13:54:32Z</time>
            </trkpt>
            <trkpt lat="43.326775000" lon="5.055372000">
                <ele>2.000000</ele>
                <time>2018-01-25T13:54:42Z</time>
            </trkpt>
            <trkpt lat="43.326685000" lon="5.055331000">
                <ele>2.000000</ele>
                <time>2018-01-25T13:54:52Z</time>
            </trkpt>
            <trkpt lat="43.326604000" lon="5.055269000">
                <ele>2.000000</ele>
                <time>2018-01-25T13:55:05Z</time>
            </trkpt>
            <trkpt lat="43.326539000" lon="5.055167000">
                <ele>2.000000</ele>
                <time>2018-01-25T13:55:16Z</time>
            </trkpt>
            <trkpt lat="43.326511000" lon="5.055081000">
                <ele>2.000000</ele>
                <time>2018-01-25T13:56:00Z</time>
            </trkpt>
            <trkpt lat="43.326522000" lon="5.054947000">
                <ele>3.000000</ele>
                <time>2018-01-25T13:56:10Z</time>
            </trkpt>
            <trkpt lat="43.326511000" lon="5.054815000">
                <ele>2.000000</ele>
                <time>2018-01-25T13:56:19Z</time>
            </trkpt>
            <trkpt lat="43.326512000" lon="5.054668000">
                <ele>2.000000</ele>
                <time>2018-01-25T13:56:30Z</time>
            </trkpt>
            <trkpt lat="43.326482000" lon="5.054534000">
                <ele>2.000000</ele>
                <time>2018-01-25T13:56:41Z</time>
            </trkpt>
            <trkpt lat="43.326472000" lon="5.054393000">
                <ele>2.000000</ele>
                <time>2018-01-25T13:56:50Z</time>
            </trkpt>
            <trkpt lat="43.326469000" lon="5.054256000">
                <ele>2.000000</ele>
                <time>2018-01-25T13:56:58Z</time>
            </trkpt>
            <trkpt lat="43.326448000" lon="5.054135000">
                <ele>2.000000</ele>
                <time>2018-01-25T13:57:06Z</time>
            </trkpt>
            <trkpt lat="43.326415000" lon="5.054002000">
                <ele>2.000000</ele>
                <time>2018-01-25T13:57:15Z</time>
            </trkpt>
            <trkpt lat="43.326371000" lon="5.053886000">
                <ele>2.000000</ele>
                <time>2018-01-25T13:57:23Z</time>
            </trkpt>
            <trkpt lat="43.326332000" lon="5.053770000">
                <ele>2.000000</ele>
                <time>2018-01-25T13:57:34Z</time>
            </trkpt>
            <trkpt lat="43.326254000" lon="5.053693000">
                <ele>2.000000</ele>
                <time>2018-01-25T13:57:46Z</time>
            </trkpt>
            <trkpt lat="43.326145000" lon="5.053661000">
                <ele>2.000000</ele>
                <time>2018-01-25T13:58:02Z</time>
            </trkpt>
            <trkpt lat="43.326095000" lon="5.053611000">
                <ele>2.000000</ele>
                <time>2018-01-25T13:58:25Z</time>
            </trkpt>
            <trkpt lat="43.326066000" lon="5.053468000">
                <ele>3.000000</ele>
                <time>2018-01-25T13:58:39Z</time>
            </trkpt>
            <trkpt lat="43.326003000" lon="5.053332000">
                <ele>3.000000</ele>
                <time>2018-01-25T13:58:48Z</time>
            </trkpt>
            <trkpt lat="43.325943000" lon="5.053210000">
                <ele>3.000000</ele>
                <time>2018-01-25T13:58:58Z</time>
            </trkpt>
            <trkpt lat="43.325878000" lon="5.053087000">
                <ele>3.000000</ele>
                <time>2018-01-25T13:59:09Z</time>
            </trkpt>
            <trkpt lat="43.325798000" lon="5.052974000">
                <ele>3.000000</ele>
                <time>2018-01-25T13:59:21Z</time>
            </trkpt>
            <trkpt lat="43.325761000" lon="5.052821000">
                <ele>3.000000</ele>
                <time>2018-01-25T13:59:46Z</time>
            </trkpt>
            <trkpt lat="43.325736000" lon="5.052667000">
                <ele>4.000000</ele>
                <time>2018-01-25T14:00:00Z</time>
            </trkpt>
            <trkpt lat="43.325707000" lon="5.052516000">
                <ele>4.000000</ele>
                <time>2018-01-25T14:00:14Z</time>
            </trkpt>
            <trkpt lat="43.325646000" lon="5.052382000">
                <ele>4.000000</ele>
                <time>2018-01-25T14:00:23Z</time>
            </trkpt>
            <trkpt lat="43.325614000" lon="5.052244000">
                <ele>3.000000</ele>
                <time>2018-01-25T14:00:32Z</time>
            </trkpt>
            <trkpt lat="43.325603000" lon="5.052092000">
                <ele>3.000000</ele>
                <time>2018-01-25T14:00:41Z</time>
            </trkpt>
            <trkpt lat="43.325624000" lon="5.051951000">
                <ele>3.000000</ele>
                <time>2018-01-25T14:00:52Z</time>
            </trkpt>
            <trkpt lat="43.325671000" lon="5.051838000">
                <ele>3.000000</ele>
                <time>2018-01-25T14:01:04Z</time>
            </trkpt>
            <trkpt lat="43.325699000" lon="5.051695000">
                <ele>4.000000</ele>
                <time>2018-01-25T14:01:14Z</time>
            </trkpt>
            <trkpt lat="43.325718000" lon="5.051553000">
                <ele>3.000000</ele>
                <time>2018-01-25T14:01:23Z</time>
            </trkpt>
            <trkpt lat="43.325748000" lon="5.051427000">
                <ele>3.000000</ele>
                <time>2018-01-25T14:01:32Z</time>
            </trkpt>
            <trkpt lat="43.325802000" lon="5.051309000">
                <ele>3.000000</ele>
                <time>2018-01-25T14:01:42Z</time>
            </trkpt>
            <trkpt lat="43.325869000" lon="5.051209000">
                <ele>3.000000</ele>
                <time>2018-01-25T14:01:51Z</time>
            </trkpt>
            <trkpt lat="43.325915000" lon="5.051094000">
                <ele>3.000000</ele>
                <time>2018-01-25T14:02:00Z</time>
            </trkpt>
            <trkpt lat="43.325948000" lon="5.050962000">
                <ele>3.000000</ele>
                <time>2018-01-25T14:02:09Z</time>
            </trkpt>
            <trkpt lat="43.325992000" lon="5.050836000">
                <ele>3.000000</ele>
                <time>2018-01-25T14:02:19Z</time>
            </trkpt>
            <trkpt lat="43.326064000" lon="5.050729000">
                <ele>3.000000</ele>
                <time>2018-01-25T14:02:30Z</time>
            </trkpt>
            <trkpt lat="43.326141000" lon="5.050643000">
                <ele>3.000000</ele>
                <time>2018-01-25T14:02:41Z</time>
            </trkpt>
            <trkpt lat="43.326212000" lon="5.050557000">
                <ele>3.000000</ele>
                <time>2018-01-25T14:02:52Z</time>
            </trkpt>
            <trkpt lat="43.326273000" lon="5.050453000">
                <ele>3.000000</ele>
                <time>2018-01-25T14:03:01Z</time>
            </trkpt>
            <trkpt lat="43.326355000" lon="5.050395000">
                <ele>3.000000</ele>
                <time>2018-01-25T14:03:09Z</time>
            </trkpt>
            <trkpt lat="43.326426000" lon="5.050323000">
                <ele>3.000000</ele>
                <time>2018-01-25T14:03:19Z</time>
            </trkpt>
            <trkpt lat="43.326476000" lon="5.050215000">
                <ele>3.000000</ele>
                <time>2018-01-25T14:03:28Z</time>
            </trkpt>
            <trkpt lat="43.326543000" lon="5.050109000">
                <ele>3.000000</ele>
                <time>2018-01-25T14:03:37Z</time>
            </trkpt>
            <trkpt lat="43.326619000" lon="5.050033000">
                <ele>3.000000</ele>
                <time>2018-01-25T14:03:46Z</time>
            </trkpt>
            <trkpt lat="43.326689000" lon="5.049943000">
                <ele>3.000000</ele>
                <time>2018-01-25T14:03:55Z</time>
            </trkpt>
            <trkpt lat="43.326760000" lon="5.049851000">
                <ele>2.000000</ele>
                <time>2018-01-25T14:04:04Z</time>
            </trkpt>
            <trkpt lat="43.326837000" lon="5.049770000">
                <ele>2.000000</ele>
                <time>2018-01-25T14:04:13Z</time>
            </trkpt>
            <trkpt lat="43.326919000" lon="5.049704000">
                <ele>2.000000</ele>
                <time>2018-01-25T14:04:22Z</time>
            </trkpt>
            <trkpt lat="43.327005000" lon="5.049633000">
                <ele>2.000000</ele>
                <time>2018-01-25T14:04:31Z</time>
            </trkpt>
            <trkpt lat="43.327088000" lon="5.049581000">
                <ele>2.000000</ele>
                <time>2018-01-25T14:04:40Z</time>
            </trkpt>
            <trkpt lat="43.327184000" lon="5.049551000">
                <ele>2.000000</ele>
                <time>2018-01-25T14:04:50Z</time>
            </trkpt>
            <trkpt lat="43.327284000" lon="5.049567000">
                <ele>2.000000</ele>
                <time>2018-01-25T14:05:12Z</time>
            </trkpt>
            <trkpt lat="43.327382000" lon="5.049637000">
                <ele>3.000000</ele>
                <time>2018-01-25T14:05:22Z</time>
            </trkpt>
            <trkpt lat="43.327466000" lon="5.049703000">
                <ele>3.000000</ele>
                <time>2018-01-25T14:05:32Z</time>
            </trkpt>
            <trkpt lat="43.327554000" lon="5.049741000">
                <ele>3.000000</ele>
                <time>2018-01-25T14:05:43Z</time>
            </trkpt>
            <trkpt lat="43.327644000" lon="5.049793000">
                <ele>4.000000</ele>
                <time>2018-01-25T14:05:53Z</time>
            </trkpt>
            <trkpt lat="43.327733000" lon="5.049855000">
                <ele>4.000000</ele>
                <time>2018-01-25T14:06:03Z</time>
            </trkpt>
            <trkpt lat="43.327814000" lon="5.049924000">
                <ele>5.000000</ele>
                <time>2018-01-25T14:06:12Z</time>
            </trkpt>
            <trkpt lat="43.327910000" lon="5.049983000">
                <ele>5.000000</ele>
                <time>2018-01-25T14:06:21Z</time>
            </trkpt>
            <trkpt lat="43.327993000" lon="5.050040000">
                <ele>5.000000</ele>
                <time>2018-01-25T14:06:30Z</time>
            </trkpt>
            <trkpt lat="43.328076000" lon="5.050097000">
                <ele>5.000000</ele>
                <time>2018-01-25T14:06:39Z</time>
            </trkpt>
            <trkpt lat="43.328162000" lon="5.050161000">
                <ele>6.000000</ele>
                <time>2018-01-25T14:06:49Z</time>
            </trkpt>
            <trkpt lat="43.328239000" lon="5.050248000">
                <ele>6.000000</ele>
                <time>2018-01-25T14:06:59Z</time>
            </trkpt>
            <trkpt lat="43.328324000" lon="5.050315000">
                <ele>7.000000</ele>
                <time>2018-01-25T14:07:08Z</time>
            </trkpt>
            <trkpt lat="43.328404000" lon="5.050386000">
                <ele>7.000000</ele>
                <time>2018-01-25T14:07:18Z</time>
            </trkpt>
            <trkpt lat="43.328481000" lon="5.050465000">
                <ele>7.000000</ele>
                <time>2018-01-25T14:07:28Z</time>
            </trkpt>
            <trkpt lat="43.328566000" lon="5.050540000">
                <ele>7.000000</ele>
                <time>2018-01-25T14:07:38Z</time>
            </trkpt>
            <trkpt lat="43.328658000" lon="5.050593000">
                <ele>7.000000</ele>
                <time>2018-01-25T14:07:48Z</time>
            </trkpt>
            <trkpt lat="43.328747000" lon="5.050648000">
                <ele>7.000000</ele>
                <time>2018-01-25T14:07:59Z</time>
            </trkpt>
            <trkpt lat="43.328805000" lon="5.050633000">
                <ele>7.000000</ele>
                <time>2018-01-25T14:08:21Z</time>
            </trkpt>
            <trkpt lat="43.328871000" lon="5.050646000">
                <ele>7.000000</ele>
                <time>2018-01-25T14:08:46Z</time>
            </trkpt>
            <trkpt lat="43.328963000" lon="5.050670000">
                <ele>7.000000</ele>
                <time>2018-01-25T14:08:56Z</time>
            </trkpt>
            <trkpt lat="43.329055000" lon="5.050747000">
                <ele>7.000000</ele>
                <time>2018-01-25T14:09:06Z</time>
            </trkpt>
            <trkpt lat="43.329149000" lon="5.050771000">
                <ele>7.000000</ele>
                <time>2018-01-25T14:09:15Z</time>
            </trkpt>
            <trkpt lat="43.329221000" lon="5.050789000">
                <ele>7.000000</ele>
                <time>2018-01-25T14:10:07Z</time>
            </trkpt>
            <trkpt lat="43.329305000" lon="5.050796000">
                <ele>7.000000</ele>
                <time>2018-01-25T14:10:36Z</time>
            </trkpt>
            <trkpt lat="43.329406000" lon="5.050820000">
                <ele>7.000000</ele>
                <time>2018-01-25T14:10:46Z</time>
            </trkpt>
            <trkpt lat="43.329489000" lon="5.050893000">
                <ele>7.000000</ele>
                <time>2018-01-25T14:11:09Z</time>
            </trkpt>
            <trkpt lat="43.329585000" lon="5.050966000">
                <ele>7.000000</ele>
                <time>2018-01-25T14:11:21Z</time>
            </trkpt>
            <trkpt lat="43.329620000" lon="5.050972000">
                <ele>7.000000</ele>
                <time>2018-01-25T14:12:06Z</time>
            </trkpt>
            <trkpt lat="43.329704000" lon="5.050978000">
                <ele>7.000000</ele>
                <time>2018-01-25T14:12:29Z</time>
            </trkpt>
            <trkpt lat="43.329780000" lon="5.050948000">
                <ele>6.000000</ele>
                <time>2018-01-25T14:12:51Z</time>
            </trkpt>
            <trkpt lat="43.329810000" lon="5.050922000">
                <ele>6.000000</ele>
                <time>2018-01-25T14:13:58Z</time>
            </trkpt>
            <trkpt lat="43.329903000" lon="5.050944000">
                <ele>6.000000</ele>
                <time>2018-01-25T14:14:22Z</time>
            </trkpt>
            <trkpt lat="43.329990000" lon="5.050984000">
                <ele>6.000000</ele>
                <time>2018-01-25T14:14:34Z</time>
            </trkpt>
            <trkpt lat="43.330092000" lon="5.051011000">
                <ele>5.000000</ele>
                <time>2018-01-25T14:14:48Z</time>
            </trkpt>
            <trkpt lat="43.330169000" lon="5.051010000">
                <ele>5.000000</ele>
                <time>2018-01-25T14:15:07Z</time>
            </trkpt>
            <trkpt lat="43.330242000" lon="5.051074000">
                <ele>5.000000</ele>
                <time>2018-01-25T14:15:22Z</time>
            </trkpt>
            <trkpt lat="43.330314000" lon="5.051157000">
                <ele>6.000000</ele>
                <time>2018-01-25T14:15:39Z</time>
            </trkpt>
            <trkpt lat="43.330377000" lon="5.051203000">
                <ele>6.000000</ele>
                <time>2018-01-25T14:16:05Z</time>
            </trkpt>
            <trkpt lat="43.330469000" lon="5.051257000">
                <ele>6.000000</ele>
                <time>2018-01-25T14:16:16Z</time>
            </trkpt>
            <trkpt lat="43.330575000" lon="5.051284000">
                <ele>6.000000</ele>
                <time>2018-01-25T14:16:28Z</time>
            </trkpt>
            <trkpt lat="43.330671000" lon="5.051364000">
                <ele>7.000000</ele>
                <time>2018-01-25T14:16:42Z</time>
            </trkpt>
            <trkpt lat="43.330759000" lon="5.051468000">
                <ele>7.000000</ele>
                <time>2018-01-25T14:16:55Z</time>
            </trkpt>
            <trkpt lat="43.330855000" lon="5.051557000">
                <ele>8.000000</ele>
                <time>2018-01-25T14:17:07Z</time>
            </trkpt>
            <trkpt lat="43.330910000" lon="5.051660000">
                <ele>9.000000</ele>
                <time>2018-01-25T14:17:16Z</time>
            </trkpt>
            <trkpt lat="43.331019000" lon="5.051752000">
                <ele>10.000000</ele>
                <time>2018-01-25T14:17:32Z</time>
            </trkpt>
            <trkpt lat="43.331209000" lon="5.051843000">
                <ele>11.000000</ele>
                <time>2018-01-25T14:18:18Z</time>
            </trkpt>
            <trkpt lat="43.331336000" lon="5.051849000">
                <ele>11.000000</ele>
                <time>2018-01-25T14:18:58Z</time>
            </trkpt>
            <trkpt lat="43.331437000" lon="5.051808000">
                <ele>10.000000</ele>
                <time>2018-01-25T14:19:13Z</time>
            </trkpt>
            <trkpt lat="43.331566000" lon="5.051775000">
                <ele>9.000000</ele>
                <time>2018-01-25T14:19:31Z</time>
            </trkpt>
            <trkpt lat="43.331670000" lon="5.051788000">
                <ele>9.000000</ele>
                <time>2018-01-25T14:19:56Z</time>
            </trkpt>
            <trkpt lat="43.331739000" lon="5.051712000">
                <ele>8.000000</ele>
                <time>2018-01-25T14:20:20Z</time>
            </trkpt>
            <trkpt lat="43.331842000" lon="5.051661000">
                <ele>7.000000</ele>
                <time>2018-01-25T14:20:30Z</time>
            </trkpt>
            <trkpt lat="43.331938000" lon="5.051615000">
                <ele>7.000000</ele>
                <time>2018-01-25T14:20:42Z</time>
            </trkpt>
            <trkpt lat="43.332017000" lon="5.051537000">
                <ele>6.000000</ele>
                <time>2018-01-25T14:20:54Z</time>
            </trkpt>
            <trkpt lat="43.332114000" lon="5.051479000">
                <ele>6.000000</ele>
                <time>2018-01-25T14:21:09Z</time>
            </trkpt>
            <trkpt lat="43.332169000" lon="5.051377000">
                <ele>6.000000</ele>
                <time>2018-01-25T14:21:25Z</time>
            </trkpt>
            <trkpt lat="43.332273000" lon="5.051328000">
                <ele>5.000000</ele>
                <time>2018-01-25T14:21:38Z</time>
            </trkpt>
            <trkpt lat="43.332354000" lon="5.051252000">
                <ele>5.000000</ele>
                <time>2018-01-25T14:21:47Z</time>
            </trkpt>
            <trkpt lat="43.332432000" lon="5.051154000">
                <ele>5.000000</ele>
                <time>2018-01-25T14:21:56Z</time>
            </trkpt>
            <trkpt lat="43.332515000" lon="5.051084000">
                <ele>5.000000</ele>
                <time>2018-01-25T14:22:05Z</time>
            </trkpt>
            <trkpt lat="43.332600000" lon="5.051009000">
                <ele>4.000000</ele>
                <time>2018-01-25T14:22:15Z</time>
            </trkpt>
            <trkpt lat="43.332696000" lon="5.050940000">
                <ele>4.000000</ele>
                <time>2018-01-25T14:22:25Z</time>
            </trkpt>
            <trkpt lat="43.332773000" lon="5.050856000">
                <ele>4.000000</ele>
                <time>2018-01-25T14:22:35Z</time>
            </trkpt>
            <trkpt lat="43.332840000" lon="5.050750000">
                <ele>3.000000</ele>
                <time>2018-01-25T14:22:45Z</time>
            </trkpt>
            <trkpt lat="43.332898000" lon="5.050641000">
                <ele>3.000000</ele>
                <time>2018-01-25T14:22:55Z</time>
            </trkpt>
            <trkpt lat="43.332936000" lon="5.050516000">
                <ele>3.000000</ele>
                <time>2018-01-25T14:23:12Z</time>
            </trkpt>
            <trkpt lat="43.332967000" lon="5.050382000">
                <ele>2.000000</ele>
                <time>2018-01-25T14:23:34Z</time>
            </trkpt>
            <trkpt lat="43.332955000" lon="5.050248000">
                <ele>2.000000</ele>
                <time>2018-01-25T14:23:46Z</time>
            </trkpt>
            <trkpt lat="43.332956000" lon="5.050115000">
                <ele>1.000000</ele>
                <time>2018-01-25T14:23:56Z</time>
            </trkpt>
            <trkpt lat="43.332959000" lon="5.049974000">
                <ele>1.000000</ele>
                <time>2018-01-25T14:24:06Z</time>
            </trkpt>
            <trkpt lat="43.332959000" lon="5.049829000">
                <ele>1.000000</ele>
                <time>2018-01-25T14:24:15Z</time>
            </trkpt>
            <trkpt lat="43.332957000" lon="5.049688000">
                <ele>2.000000</ele>
                <time>2018-01-25T14:24:25Z</time>
            </trkpt>
            <trkpt lat="43.332963000" lon="5.049547000">
                <ele>2.000000</ele>
                <time>2018-01-25T14:24:34Z</time>
            </trkpt>
            <trkpt lat="43.332965000" lon="5.049400000">
                <ele>2.000000</ele>
                <time>2018-01-25T14:24:43Z</time>
            </trkpt>
            <trkpt lat="43.332970000" lon="5.049262000">
                <ele>2.000000</ele>
                <time>2018-01-25T14:24:51Z</time>
            </trkpt>
            <trkpt lat="43.332957000" lon="5.049131000">
                <ele>3.000000</ele>
                <time>2018-01-25T14:25:03Z</time>
            </trkpt>
            <trkpt lat="43.332976000" lon="5.048978000">
                <ele>5.000000</ele>
                <time>2018-01-25T14:25:14Z</time>
            </trkpt>
            <trkpt lat="43.333017000" lon="5.048862000">
                <ele>7.000000</ele>
                <time>2018-01-25T14:25:25Z</time>
            </trkpt>
            <trkpt lat="43.332951000" lon="5.048775000">
                <ele>8.000000</ele>
                <time>2018-01-25T14:25:37Z</time>
            </trkpt>
            <trkpt lat="43.332844000" lon="5.048707000">
                <ele>8.000000</ele>
                <time>2018-01-25T14:25:48Z</time>
            </trkpt>
            <trkpt lat="43.332723000" lon="5.048650000">
                <ele>9.000000</ele>
                <time>2018-01-25T14:25:59Z</time>
            </trkpt>
            <trkpt lat="43.332627000" lon="5.048570000">
                <ele>9.000000</ele>
                <time>2018-01-25T14:26:10Z</time>
            </trkpt>
            <trkpt lat="43.332512000" lon="5.048580000">
                <ele>9.000000</ele>
                <time>2018-01-25T14:26:21Z</time>
            </trkpt>
            <trkpt lat="43.332414000" lon="5.048538000">
                <ele>8.000000</ele>
                <time>2018-01-25T14:26:35Z</time>
            </trkpt>
            <trkpt lat="43.332308000" lon="5.048395000">
                <ele>9.000000</ele>
                <time>2018-01-25T14:26:56Z</time>
            </trkpt>
            <trkpt lat="43.332177000" lon="5.048358000">
                <ele>9.000000</ele>
                <time>2018-01-25T14:27:07Z</time>
            </trkpt>
            <trkpt lat="43.332054000" lon="5.048282000">
                <ele>8.000000</ele>
                <time>2018-01-25T14:27:19Z</time>
            </trkpt>
            <trkpt lat="43.331834000" lon="5.048067000">
                <ele>8.000000</ele>
                <time>2018-01-25T14:28:02Z</time>
            </trkpt>
            <trkpt lat="43.331755000" lon="5.047982000">
                <ele>8.000000</ele>
                <time>2018-01-25T14:28:45Z</time>
            </trkpt>
            <trkpt lat="43.331649000" lon="5.047939000">
                <ele>8.000000</ele>
                <time>2018-01-25T14:28:55Z</time>
            </trkpt>
            <trkpt lat="43.331548000" lon="5.047860000">
                <ele>8.000000</ele>
                <time>2018-01-25T14:29:24Z</time>
            </trkpt>
            <trkpt lat="43.331546000" lon="5.047806000">
                <ele>8.000000</ele>
                <time>2018-01-25T14:36:52Z</time>
            </trkpt>
            <trkpt lat="43.331439000" lon="5.047737000">
                <ele>8.000000</ele>
                <time>2018-01-25T14:37:03Z</time>
            </trkpt>
            <trkpt lat="43.331345000" lon="5.047670000">
                <ele>8.000000</ele>
                <time>2018-01-25T14:37:10Z</time>
            </trkpt>
            <trkpt lat="43.331251000" lon="5.047593000">
                <ele>8.000000</ele>
                <time>2018-01-25T14:37:18Z</time>
            </trkpt>
            <trkpt lat="43.331167000" lon="5.047527000">
                <ele>8.000000</ele>
                <time>2018-01-25T14:37:25Z</time>
            </trkpt>
            <trkpt lat="43.331069000" lon="5.047442000">
                <ele>8.000000</ele>
                <time>2018-01-25T14:37:33Z</time>
            </trkpt>
            <trkpt lat="43.330976000" lon="5.047367000">
                <ele>8.000000</ele>
                <time>2018-01-25T14:37:47Z</time>
            </trkpt>
            <trkpt lat="43.330882000" lon="5.047286000">
                <ele>8.000000</ele>
                <time>2018-01-25T14:37:56Z</time>
            </trkpt>
            <trkpt lat="43.330782000" lon="5.047232000">
                <ele>8.000000</ele>
                <time>2018-01-25T14:38:05Z</time>
            </trkpt>
            <trkpt lat="43.330686000" lon="5.047196000">
                <ele>7.000000</ele>
                <time>2018-01-25T14:38:14Z</time>
            </trkpt>
            <trkpt lat="43.330580000" lon="5.047148000">
                <ele>7.000000</ele>
                <time>2018-01-25T14:38:23Z</time>
            </trkpt>
            <trkpt lat="43.330468000" lon="5.047110000">
                <ele>7.000000</ele>
                <time>2018-01-25T14:38:32Z</time>
            </trkpt>
            <trkpt lat="43.330360000" lon="5.047076000">
                <ele>7.000000</ele>
                <time>2018-01-25T14:38:41Z</time>
            </trkpt>
            <trkpt lat="43.330256000" lon="5.047048000">
                <ele>6.000000</ele>
                <time>2018-01-25T14:38:49Z</time>
            </trkpt>
            <trkpt lat="43.330171000" lon="5.047021000">
                <ele>6.000000</ele>
                <time>2018-01-25T14:38:57Z</time>
            </trkpt>
            <trkpt lat="43.330077000" lon="5.046983000">
                <ele>6.000000</ele>
                <time>2018-01-25T14:39:04Z</time>
            </trkpt>
            <trkpt lat="43.329978000" lon="5.046978000">
                <ele>6.000000</ele>
                <time>2018-01-25T14:39:14Z</time>
            </trkpt>
            <trkpt lat="43.329875000" lon="5.046950000">
                <ele>5.000000</ele>
                <time>2018-01-25T14:39:22Z</time>
            </trkpt>
            <trkpt lat="43.329753000" lon="5.046906000">
                <ele>5.000000</ele>
                <time>2018-01-25T14:39:31Z</time>
            </trkpt>
            <trkpt lat="43.329650000" lon="5.046860000">
                <ele>5.000000</ele>
                <time>2018-01-25T14:39:40Z</time>
            </trkpt>
            <trkpt lat="43.329536000" lon="5.046772000">
                <ele>5.000000</ele>
                <time>2018-01-25T14:39:52Z</time>
            </trkpt>
            <trkpt lat="43.329448000" lon="5.046691000">
                <ele>5.000000</ele>
                <time>2018-01-25T14:40:00Z</time>
            </trkpt>
            <trkpt lat="43.329381000" lon="5.046595000">
                <ele>5.000000</ele>
                <time>2018-01-25T14:40:08Z</time>
            </trkpt>
            <trkpt lat="43.329324000" lon="5.046488000">
                <ele>5.000000</ele>
                <time>2018-01-25T14:40:16Z</time>
            </trkpt>
            <trkpt lat="43.329277000" lon="5.046353000">
                <ele>5.000000</ele>
                <time>2018-01-25T14:40:24Z</time>
            </trkpt>
            <trkpt lat="43.329246000" lon="5.046232000">
                <ele>5.000000</ele>
                <time>2018-01-25T14:40:32Z</time>
            </trkpt>
            <trkpt lat="43.329247000" lon="5.046103000">
                <ele>5.000000</ele>
                <time>2018-01-25T14:40:40Z</time>
            </trkpt>
            <trkpt lat="43.329258000" lon="5.045973000">
                <ele>5.000000</ele>
                <time>2018-01-25T14:40:48Z</time>
            </trkpt>
            <trkpt lat="43.329265000" lon="5.045834000">
                <ele>6.000000</ele>
                <time>2018-01-25T14:40:56Z</time>
            </trkpt>
            <trkpt lat="43.329248000" lon="5.045701000">
                <ele>6.000000</ele>
                <time>2018-01-25T14:41:06Z</time>
            </trkpt>
            <trkpt lat="43.329163000" lon="5.045643000">
                <ele>5.000000</ele>
                <time>2018-01-25T14:41:18Z</time>
            </trkpt>
            <trkpt lat="43.329107000" lon="5.045544000">
                <ele>5.000000</ele>
                <time>2018-01-25T14:41:26Z</time>
            </trkpt>
            <trkpt lat="43.329039000" lon="5.045420000">
                <ele>4.000000</ele>
                <time>2018-01-25T14:41:47Z</time>
            </trkpt>
            <trkpt lat="43.329065000" lon="5.045299000">
                <ele>4.000000</ele>
                <time>2018-01-25T14:42:00Z</time>
            </trkpt>
            <trkpt lat="43.329010000" lon="5.045202000">
                <ele>4.000000</ele>
                <time>2018-01-25T14:42:14Z</time>
            </trkpt>
            <trkpt lat="43.328941000" lon="5.045152000">
                <ele>3.000000</ele>
                <time>2018-01-25T14:43:06Z</time>
            </trkpt>
            <trkpt lat="43.329014000" lon="5.045032000">
                <ele>4.000000</ele>
                <time>2018-01-25T14:43:35Z</time>
            </trkpt>
            <trkpt lat="43.329091000" lon="5.044987000">
                <ele>4.000000</ele>
                <time>2018-01-25T14:43:49Z</time>
            </trkpt>
            <trkpt lat="43.329166000" lon="5.044993000">
                <ele>5.000000</ele>
                <time>2018-01-25T14:44:16Z</time>
            </trkpt>
            <trkpt lat="43.329201000" lon="5.044887000">
                <ele>5.000000</ele>
                <time>2018-01-25T14:44:33Z</time>
            </trkpt>
            <trkpt lat="43.329207000" lon="5.044766000">
                <ele>4.000000</ele>
                <time>2018-01-25T14:44:43Z</time>
            </trkpt>
            <trkpt lat="43.329263000" lon="5.044695000">
                <ele>4.000000</ele>
                <time>2018-01-25T14:45:02Z</time>
            </trkpt>
            <trkpt lat="43.329363000" lon="5.044663000">
                <ele>4.000000</ele>
                <time>2018-01-25T14:45:12Z</time>
            </trkpt>
            <trkpt lat="43.329444000" lon="5.044632000">
                <ele>4.000000</ele>
                <time>2018-01-25T14:45:30Z</time>
            </trkpt>
            <trkpt lat="43.329543000" lon="5.044589000">
                <ele>5.000000</ele>
                <time>2018-01-25T14:45:42Z</time>
            </trkpt>
            <trkpt lat="43.329618000" lon="5.044525000">
                <ele>4.000000</ele>
                <time>2018-01-25T14:46:12Z</time>
            </trkpt>
            <trkpt lat="43.329701000" lon="5.044477000">
                <ele>5.000000</ele>
                <time>2018-01-25T14:46:45Z</time>
            </trkpt>
            <trkpt lat="43.329787000" lon="5.044451000">
                <ele>5.000000</ele>
                <time>2018-01-25T14:46:57Z</time>
            </trkpt>
            <trkpt lat="43.329888000" lon="5.044400000">
                <ele>5.000000</ele>
                <time>2018-01-25T14:47:10Z</time>
            </trkpt>
            <trkpt lat="43.329975000" lon="5.044331000">
                <ele>4.000000</ele>
                <time>2018-01-25T14:47:20Z</time>
            </trkpt>
            <trkpt lat="43.330060000" lon="5.044267000">
                <ele>4.000000</ele>
                <time>2018-01-25T14:47:29Z</time>
            </trkpt>
            <trkpt lat="43.330147000" lon="5.044210000">
                <ele>4.000000</ele>
                <time>2018-01-25T14:47:38Z</time>
            </trkpt>
            <trkpt lat="43.330239000" lon="5.044151000">
                <ele>4.000000</ele>
                <time>2018-01-25T14:47:47Z</time>
            </trkpt>
            <trkpt lat="43.330323000" lon="5.044100000">
                <ele>5.000000</ele>
                <time>2018-01-25T14:47:56Z</time>
            </trkpt>
            <trkpt lat="43.330431000" lon="5.044051000">
                <ele>5.000000</ele>
                <time>2018-01-25T14:48:05Z</time>
            </trkpt>
            <trkpt lat="43.330532000" lon="5.044021000">
                <ele>5.000000</ele>
                <time>2018-01-25T14:48:15Z</time>
            </trkpt>
            <trkpt lat="43.330640000" lon="5.043988000">
                <ele>5.000000</ele>
                <time>2018-01-25T14:48:25Z</time>
            </trkpt>
            <trkpt lat="43.330747000" lon="5.043962000">
                <ele>6.000000</ele>
                <time>2018-01-25T14:48:35Z</time>
            </trkpt>
            <trkpt lat="43.330866000" lon="5.043969000">
                <ele>6.000000</ele>
                <time>2018-01-25T14:48:50Z</time>
            </trkpt>
            <trkpt lat="43.331038000" lon="5.043924000">
                <ele>7.000000</ele>
                <time>2018-01-25T14:49:18Z</time>
            </trkpt>
            <trkpt lat="43.331152000" lon="5.043896000">
                <ele>7.000000</ele>
                <time>2018-01-25T14:49:32Z</time>
            </trkpt>
            <trkpt lat="43.331280000" lon="5.043869000">
                <ele>7.000000</ele>
                <time>2018-01-25T14:49:44Z</time>
            </trkpt>
            <trkpt lat="43.331395000" lon="5.043827000">
                <ele>7.000000</ele>
                <time>2018-01-25T14:49:52Z</time>
            </trkpt>
            <trkpt lat="43.331511000" lon="5.043802000">
                <ele>8.000000</ele>
                <time>2018-01-25T14:50:02Z</time>
            </trkpt>
            <trkpt lat="43.331596000" lon="5.043717000">
                <ele>7.000000</ele>
                <time>2018-01-25T14:50:12Z</time>
            </trkpt>
            <trkpt lat="43.331712000" lon="5.043711000">
                <ele>8.000000</ele>
                <time>2018-01-25T14:50:24Z</time>
            </trkpt>
            <trkpt lat="43.331837000" lon="5.043682000">
                <ele>9.000000</ele>
                <time>2018-01-25T14:50:39Z</time>
            </trkpt>
            <trkpt lat="43.331916000" lon="5.043623000">
                <ele>9.000000</ele>
                <time>2018-01-25T14:50:49Z</time>
            </trkpt>
            <trkpt lat="43.331981000" lon="5.043523000">
                <ele>9.000000</ele>
                <time>2018-01-25T14:50:59Z</time>
            </trkpt>
            <trkpt lat="43.331980000" lon="5.043387000">
                <ele>8.000000</ele>
                <time>2018-01-25T14:51:08Z</time>
            </trkpt>
            <trkpt lat="43.331971000" lon="5.043261000">
                <ele>8.000000</ele>
                <time>2018-01-25T14:51:17Z</time>
            </trkpt>
            <trkpt lat="43.331958000" lon="5.043131000">
                <ele>8.000000</ele>
                <time>2018-01-25T14:51:26Z</time>
            </trkpt>
            <trkpt lat="43.331916000" lon="5.043000000">
                <ele>8.000000</ele>
                <time>2018-01-25T14:51:35Z</time>
            </trkpt>
            <trkpt lat="43.331861000" lon="5.042889000">
                <ele>8.000000</ele>
                <time>2018-01-25T14:51:44Z</time>
            </trkpt>
            <trkpt lat="43.331757000" lon="5.042857000">
                <ele>7.000000</ele>
                <time>2018-01-25T14:51:55Z</time>
            </trkpt>
            <trkpt lat="43.331684000" lon="5.042755000">
                <ele>7.000000</ele>
                <time>2018-01-25T14:52:05Z</time>
            </trkpt>
            <trkpt lat="43.331612000" lon="5.042660000">
                <ele>6.000000</ele>
                <time>2018-01-25T14:52:13Z</time>
            </trkpt>
            <trkpt lat="43.331530000" lon="5.042566000">
                <ele>6.000000</ele>
                <time>2018-01-25T14:52:22Z</time>
            </trkpt>
            <trkpt lat="43.331437000" lon="5.042484000">
                <ele>5.000000</ele>
                <time>2018-01-25T14:52:31Z</time>
            </trkpt>
            <trkpt lat="43.331345000" lon="5.042410000">
                <ele>5.000000</ele>
                <time>2018-01-25T14:52:40Z</time>
            </trkpt>
            <trkpt lat="43.331243000" lon="5.042353000">
                <ele>4.000000</ele>
                <time>2018-01-25T14:52:49Z</time>
            </trkpt>
            <trkpt lat="43.331153000" lon="5.042290000">
                <ele>4.000000</ele>
                <time>2018-01-25T14:52:58Z</time>
            </trkpt>
            <trkpt lat="43.331058000" lon="5.042213000">
                <ele>3.000000</ele>
                <time>2018-01-25T14:53:07Z</time>
            </trkpt>
            <trkpt lat="43.330978000" lon="5.042134000">
                <ele>3.000000</ele>
                <time>2018-01-25T14:53:17Z</time>
            </trkpt>
            <trkpt lat="43.330915000" lon="5.042036000">
                <ele>3.000000</ele>
                <time>2018-01-25T14:53:26Z</time>
            </trkpt>
            <trkpt lat="43.330858000" lon="5.041932000">
                <ele>4.000000</ele>
                <time>2018-01-25T14:53:35Z</time>
            </trkpt>
            <trkpt lat="43.330794000" lon="5.041816000">
                <ele>4.000000</ele>
                <time>2018-01-25T14:53:51Z</time>
            </trkpt>
            <trkpt lat="43.330735000" lon="5.041697000">
                <ele>4.000000</ele>
                <time>2018-01-25T14:54:01Z</time>
            </trkpt>
            <trkpt lat="43.330675000" lon="5.041578000">
                <ele>4.000000</ele>
                <time>2018-01-25T14:54:11Z</time>
            </trkpt>
            <trkpt lat="43.330646000" lon="5.041443000">
                <ele>4.000000</ele>
                <time>2018-01-25T14:54:25Z</time>
            </trkpt>
            <trkpt lat="43.330676000" lon="5.041292000">
                <ele>4.000000</ele>
                <time>2018-01-25T14:54:36Z</time>
            </trkpt>
            <trkpt lat="43.330706000" lon="5.041124000">
                <ele>4.000000</ele>
                <time>2018-01-25T14:54:46Z</time>
            </trkpt>
            <trkpt lat="43.330764000" lon="5.040981000">
                <ele>4.000000</ele>
                <time>2018-01-25T14:54:56Z</time>
            </trkpt>
            <trkpt lat="43.330812000" lon="5.040814000">
                <ele>4.000000</ele>
                <time>2018-01-25T14:55:06Z</time>
            </trkpt>
            <trkpt lat="43.330858000" lon="5.040666000">
                <ele>4.000000</ele>
                <time>2018-01-25T14:55:16Z</time>
            </trkpt>
            <trkpt lat="43.330910000" lon="5.040512000">
                <ele>4.000000</ele>
                <time>2018-01-25T14:55:26Z</time>
            </trkpt>
            <trkpt lat="43.330956000" lon="5.040379000">
                <ele>3.000000</ele>
                <time>2018-01-25T14:55:36Z</time>
            </trkpt>
            <trkpt lat="43.331018000" lon="5.040238000">
                <ele>3.000000</ele>
                <time>2018-01-25T14:55:46Z</time>
            </trkpt>
            <trkpt lat="43.331054000" lon="5.040113000">
                <ele>3.000000</ele>
                <time>2018-01-25T14:55:55Z</time>
            </trkpt>
            <trkpt lat="43.331099000" lon="5.039971000">
                <ele>3.000000</ele>
                <time>2018-01-25T14:56:05Z</time>
            </trkpt>
            <trkpt lat="43.331151000" lon="5.039840000">
                <ele>3.000000</ele>
                <time>2018-01-25T14:56:14Z</time>
            </trkpt>
            <trkpt lat="43.331156000" lon="5.039691000">
                <ele>3.000000</ele>
                <time>2018-01-25T14:56:24Z</time>
            </trkpt>
            <trkpt lat="43.331108000" lon="5.039533000">
                <ele>3.000000</ele>
                <time>2018-01-25T14:56:33Z</time>
            </trkpt>
            <trkpt lat="43.331067000" lon="5.039404000">
                <ele>3.000000</ele>
                <time>2018-01-25T14:56:52Z</time>
            </trkpt>
            <trkpt lat="43.330994000" lon="5.039297000">
                <ele>3.000000</ele>
                <time>2018-01-25T14:57:02Z</time>
            </trkpt>
            <trkpt lat="43.330904000" lon="5.039184000">
                <ele>2.000000</ele>
                <time>2018-01-25T14:57:12Z</time>
            </trkpt>
            <trkpt lat="43.330806000" lon="5.039093000">
                <ele>2.000000</ele>
                <time>2018-01-25T14:57:22Z</time>
            </trkpt>
            <trkpt lat="43.330707000" lon="5.039035000">
                <ele>3.000000</ele>
                <time>2018-01-25T14:57:31Z</time>
            </trkpt>
            <trkpt lat="43.330603000" lon="5.038992000">
                <ele>3.000000</ele>
                <time>2018-01-25T14:57:41Z</time>
            </trkpt>
            <trkpt lat="43.330496000" lon="5.039003000">
                <ele>3.000000</ele>
                <time>2018-01-25T14:57:50Z</time>
            </trkpt>
            <trkpt lat="43.330383000" lon="5.039040000">
                <ele>3.000000</ele>
                <time>2018-01-25T14:58:00Z</time>
            </trkpt>
            <trkpt lat="43.330294000" lon="5.039114000">
                <ele>3.000000</ele>
                <time>2018-01-25T14:58:09Z</time>
            </trkpt>
            <trkpt lat="43.330195000" lon="5.039153000">
                <ele>4.000000</ele>
                <time>2018-01-25T14:58:19Z</time>
            </trkpt>
            <trkpt lat="43.330114000" lon="5.039256000">
                <ele>3.000000</ele>
                <time>2018-01-25T14:58:29Z</time>
            </trkpt>
            <trkpt lat="43.330049000" lon="5.039368000">
                <ele>3.000000</ele>
                <time>2018-01-25T14:58:40Z</time>
            </trkpt>
            <trkpt lat="43.329954000" lon="5.039414000">
                <ele>3.000000</ele>
                <time>2018-01-25T14:58:52Z</time>
            </trkpt>
            <trkpt lat="43.329838000" lon="5.039438000">
                <ele>3.000000</ele>
                <time>2018-01-25T14:59:10Z</time>
            </trkpt>
        </trkseg>
    </trk>
</gpx>
